<?xml version="1.0" encoding="UTF-8" standalone="no" ?>
<gpx xmlns="http://www.topografix.com/GPX/1/1" xmlns:xsi="http://www.w3.org/2001/XMLSchema-instance" xsi:schemaLocation="http://www.topografix.com/GPX/1/1 http://www.topografix.com/GPX/1/1/gpx.xsd" version="1.1" creator="VisuGPX - https://www.visugpx.com">
  <metadata>
    <name>VTT - Jouques</name>
    <desc><![CDATA[Sortie sans difficulté]]></desc>
  </metadata>
  <trk>
    <name><![CDATA[VTT - Jouques]]></name>
    <trkseg>
      <trkpt lat="43.63697" lon="5.638">
        <ele>271.20001220703</ele>
        <time>2013-02-02T08:39:11.000Z</time>
      </trkpt>
      <trkpt lat="43.63707" lon="5.63876">
        <ele>272.20001220703</ele>
        <time>2013-02-02T08:40:29.000Z</time>
      </trkpt>
      <trkpt lat="43.63714" lon="5.6394">
        <ele>272.79998779297</ele>
        <time>2013-02-02T08:40:50.000Z</time>
      </trkpt>
      <trkpt lat="43.6372" lon="5.64005">
        <ele>273.60000610352</ele>
        <time>2013-02-02T08:41:09.000Z</time>
      </trkpt>
      <trkpt lat="43.63722" lon="5.64073">
        <ele>273.60000610352</ele>
        <time>2013-02-02T08:41:25.000Z</time>
      </trkpt>
      <trkpt lat="43.63707" lon="5.64133">
        <ele>272</ele>
        <time>2013-02-02T08:41:40.000Z</time>
      </trkpt>
      <trkpt lat="43.63692" lon="5.64197">
        <ele>270</ele>
        <time>2013-02-02T08:41:52.000Z</time>
      </trkpt>
      <trkpt lat="43.63678" lon="5.6426">
        <ele>268.39999389648</ele>
        <time>2013-02-02T08:42:04.000Z</time>
      </trkpt>
      <trkpt lat="43.63706" lon="5.64316">
        <ele>273.20001220703</ele>
        <time>2013-02-02T08:42:17.000Z</time>
      </trkpt>
      <trkpt lat="43.63697" lon="5.64379">
        <ele>274</ele>
        <time>2013-02-02T08:42:29.000Z</time>
      </trkpt>
      <trkpt lat="43.63668" lon="5.64424">
        <ele>273.79998779297</ele>
        <time>2013-02-02T08:42:38.000Z</time>
      </trkpt>
      <trkpt lat="43.63625" lon="5.64452">
        <ele>276.60000610352</ele>
        <time>2013-02-02T08:42:51.000Z</time>
      </trkpt>
      <trkpt lat="43.63596" lon="5.64501">
        <ele>279.39999389648</ele>
        <time>2013-02-02T08:43:04.000Z</time>
      </trkpt>
      <trkpt lat="43.63573" lon="5.64556">
        <ele>282.79998779297</ele>
        <time>2013-02-02T08:43:16.000Z</time>
      </trkpt>
      <trkpt lat="43.63556" lon="5.64613">
        <ele>285.20001220703</ele>
        <time>2013-02-02T08:43:28.000Z</time>
      </trkpt>
      <trkpt lat="43.63558" lon="5.6468">
        <ele>285.79998779297</ele>
        <time>2013-02-02T08:43:41.000Z</time>
      </trkpt>
      <trkpt lat="43.63568" lon="5.64742">
        <ele>285.79998779297</ele>
        <time>2013-02-02T08:43:52.000Z</time>
      </trkpt>
      <trkpt lat="43.63575" lon="5.64806">
        <ele>285.60000610352</ele>
        <time>2013-02-02T08:44:05.000Z</time>
      </trkpt>
      <trkpt lat="43.63581" lon="5.64871">
        <ele>284</ele>
        <time>2013-02-02T08:44:18.000Z</time>
      </trkpt>
      <trkpt lat="43.63616" lon="5.64904">
        <ele>288.39999389648</ele>
        <time>2013-02-02T08:44:31.000Z</time>
      </trkpt>
      <trkpt lat="43.6364" lon="5.64955">
        <ele>290</ele>
        <time>2013-02-02T08:44:44.000Z</time>
      </trkpt>
      <trkpt lat="43.63656" lon="5.65013">
        <ele>288.60000610352</ele>
        <time>2013-02-02T08:44:57.000Z</time>
      </trkpt>
      <trkpt lat="43.63695" lon="5.65044">
        <ele>294.20001220703</ele>
        <time>2013-02-02T08:45:09.000Z</time>
      </trkpt>
      <trkpt lat="43.63705" lon="5.65106">
        <ele>298.60000610352</ele>
        <time>2013-02-02T08:45:21.000Z</time>
      </trkpt>
      <trkpt lat="43.63705" lon="5.6517">
        <ele>303.20001220703</ele>
        <time>2013-02-02T08:45:33.000Z</time>
      </trkpt>
      <trkpt lat="43.63702" lon="5.65235">
        <ele>299.60000610352</ele>
        <time>2013-02-02T08:45:45.000Z</time>
      </trkpt>
      <trkpt lat="43.63723" lon="5.65288">
        <ele>300.20001220703</ele>
        <time>2013-02-02T08:45:58.000Z</time>
      </trkpt>
      <trkpt lat="43.63761" lon="5.65326">
        <ele>300.20001220703</ele>
        <time>2013-02-02T08:46:13.000Z</time>
      </trkpt>
      <trkpt lat="43.63769" lon="5.65389">
        <ele>302.20001220703</ele>
        <time>2013-02-02T08:46:27.000Z</time>
      </trkpt>
      <trkpt lat="43.63764" lon="5.65449">
        <ele>305</ele>
        <time>2013-02-02T08:46:41.000Z</time>
      </trkpt>
      <trkpt lat="43.63726" lon="5.65484">
        <ele>307.20001220703</ele>
        <time>2013-02-02T08:46:57.000Z</time>
      </trkpt>
      <trkpt lat="43.63718" lon="5.65542">
        <ele>306.39999389648</ele>
        <time>2013-02-02T08:47:14.000Z</time>
      </trkpt>
      <trkpt lat="43.63746" lon="5.65595">
        <ele>308</ele>
        <time>2013-02-02T08:47:26.000Z</time>
      </trkpt>
      <trkpt lat="43.63762" lon="5.65657">
        <ele>306.60000610352</ele>
        <time>2013-02-02T08:47:34.000Z</time>
      </trkpt>
      <trkpt lat="43.63804" lon="5.65682">
        <ele>309.60000610352</ele>
        <time>2013-02-02T08:47:44.000Z</time>
      </trkpt>
      <trkpt lat="43.63826" lon="5.6574">
        <ele>307.20001220703</ele>
        <time>2013-02-02T08:47:56.000Z</time>
      </trkpt>
      <trkpt lat="43.63846" lon="5.65801">
        <ele>308.60000610352</ele>
        <time>2013-02-02T08:48:08.000Z</time>
      </trkpt>
      <trkpt lat="43.63838" lon="5.65863">
        <ele>309</ele>
        <time>2013-02-02T08:48:20.000Z</time>
      </trkpt>
      <trkpt lat="43.6383" lon="5.65924">
        <ele>309.60000610352</ele>
        <time>2013-02-02T08:48:31.000Z</time>
      </trkpt>
      <trkpt lat="43.6386" lon="5.65976">
        <ele>306.39999389648</ele>
        <time>2013-02-02T08:48:41.000Z</time>
      </trkpt>
      <trkpt lat="43.63898" lon="5.66018">
        <ele>305</ele>
        <time>2013-02-02T08:48:51.000Z</time>
      </trkpt>
      <trkpt lat="43.63931" lon="5.66066">
        <ele>306</ele>
        <time>2013-02-02T08:49:02.000Z</time>
      </trkpt>
      <trkpt lat="43.6396" lon="5.66117">
        <ele>308.79998779297</ele>
        <time>2013-02-02T08:49:12.000Z</time>
      </trkpt>
      <trkpt lat="43.63985" lon="5.66172">
        <ele>310.20001220703</ele>
        <time>2013-02-02T08:49:23.000Z</time>
      </trkpt>
      <trkpt lat="43.64006" lon="5.66231">
        <ele>310.39999389648</ele>
        <time>2013-02-02T08:49:38.000Z</time>
      </trkpt>
      <trkpt lat="43.6402" lon="5.66295">
        <ele>311.39999389648</ele>
        <time>2013-02-02T08:49:58.000Z</time>
      </trkpt>
      <trkpt lat="43.64044" lon="5.66353">
        <ele>313.79998779297</ele>
        <time>2013-02-02T08:50:09.000Z</time>
      </trkpt>
      <trkpt lat="43.6407" lon="5.6641">
        <ele>316</ele>
        <time>2013-02-02T08:50:19.000Z</time>
      </trkpt>
      <trkpt lat="43.64095" lon="5.66464">
        <ele>317.20001220703</ele>
        <time>2013-02-02T08:50:31.000Z</time>
      </trkpt>
      <trkpt lat="43.64129" lon="5.66508">
        <ele>321.79998779297</ele>
        <time>2013-02-02T08:50:44.000Z</time>
      </trkpt>
      <trkpt lat="43.64151" lon="5.66566">
        <ele>327.60000610352</ele>
        <time>2013-02-02T08:50:57.000Z</time>
      </trkpt>
      <trkpt lat="43.64167" lon="5.66628">
        <ele>329.39999389648</ele>
        <time>2013-02-02T08:51:10.000Z</time>
      </trkpt>
      <trkpt lat="43.64197" lon="5.66684">
        <ele>332.39999389648</ele>
        <time>2013-02-02T08:51:24.000Z</time>
      </trkpt>
      <trkpt lat="43.6423" lon="5.66734">
        <ele>332.79998779297</ele>
        <time>2013-02-02T08:51:39.000Z</time>
      </trkpt>
      <trkpt lat="43.64272" lon="5.66761">
        <ele>336.39999389648</ele>
        <time>2013-02-02T08:51:54.000Z</time>
      </trkpt>
      <trkpt lat="43.64309" lon="5.66804">
        <ele>340.20001220703</ele>
        <time>2013-02-02T08:52:09.000Z</time>
      </trkpt>
      <trkpt lat="43.64343" lon="5.66854">
        <ele>343.39999389648</ele>
        <time>2013-02-02T08:52:25.000Z</time>
      </trkpt>
      <trkpt lat="43.64375" lon="5.66898">
        <ele>348.20001220703</ele>
        <time>2013-02-02T08:52:41.000Z</time>
      </trkpt>
      <trkpt lat="43.64403" lon="5.66955">
        <ele>350.20001220703</ele>
        <time>2013-02-02T08:52:58.000Z</time>
      </trkpt>
      <trkpt lat="43.64427" lon="5.67012">
        <ele>351.60000610352</ele>
        <time>2013-02-02T08:53:16.000Z</time>
      </trkpt>
      <trkpt lat="43.64441" lon="5.67076">
        <ele>357.39999389648</ele>
        <time>2013-02-02T08:53:34.000Z</time>
      </trkpt>
      <trkpt lat="43.64447" lon="5.67143">
        <ele>361.60000610352</ele>
        <time>2013-02-02T08:53:53.000Z</time>
      </trkpt>
      <trkpt lat="43.64442" lon="5.6722">
        <ele>365.60000610352</ele>
        <time>2013-02-02T08:54:18.000Z</time>
      </trkpt>
      <trkpt lat="43.64423" lon="5.67289">
        <ele>367.79998779297</ele>
        <time>2013-02-02T08:54:47.000Z</time>
      </trkpt>
      <trkpt lat="43.64414" lon="5.67354">
        <ele>374.60000610352</ele>
        <time>2013-02-02T08:55:30.000Z</time>
      </trkpt>
      <trkpt lat="43.64431" lon="5.67374">
        <ele>379.20001220703</ele>
        <time>2013-02-02T08:56:16.000Z</time>
      </trkpt>
      <trkpt lat="43.64415" lon="5.67433">
        <ele>386.39999389648</ele>
        <time>2013-02-02T08:56:51.000Z</time>
      </trkpt>
      <trkpt lat="43.64442" lon="5.67486">
        <ele>391.60000610352</ele>
        <time>2013-02-02T08:59:09.000Z</time>
      </trkpt>
      <trkpt lat="43.64444" lon="5.67551">
        <ele>395.60000610352</ele>
        <time>2013-02-02T08:59:28.000Z</time>
      </trkpt>
      <trkpt lat="43.64443" lon="5.67619">
        <ele>399</ele>
        <time>2013-02-02T08:59:44.000Z</time>
      </trkpt>
      <trkpt lat="43.64417" lon="5.67675">
        <ele>402</ele>
        <time>2013-02-02T09:00:03.000Z</time>
      </trkpt>
      <trkpt lat="43.64404" lon="5.6774">
        <ele>403.39999389648</ele>
        <time>2013-02-02T09:00:21.000Z</time>
      </trkpt>
      <trkpt lat="43.64414" lon="5.67806">
        <ele>404</ele>
        <time>2013-02-02T09:00:39.000Z</time>
      </trkpt>
      <trkpt lat="43.64417" lon="5.67873">
        <ele>407.20001220703</ele>
        <time>2013-02-02T09:00:59.000Z</time>
      </trkpt>
      <trkpt lat="43.64425" lon="5.67941">
        <ele>412</ele>
        <time>2013-02-02T09:01:19.000Z</time>
      </trkpt>
      <trkpt lat="43.64426" lon="5.68007">
        <ele>416.20001220703</ele>
        <time>2013-02-02T09:01:29.000Z</time>
      </trkpt>
      <trkpt lat="43.64471" lon="5.68031">
        <ele>417.39999389648</ele>
        <time>2013-02-02T09:01:48.000Z</time>
      </trkpt>
      <trkpt lat="43.6452" lon="5.68029">
        <ele>417.79998779297</ele>
        <time>2013-02-02T09:02:05.000Z</time>
      </trkpt>
      <trkpt lat="43.64568" lon="5.68033">
        <ele>418.20001220703</ele>
        <time>2013-02-02T09:02:22.000Z</time>
      </trkpt>
      <trkpt lat="43.64568" lon="5.67973">
        <ele>413.20001220703</ele>
        <time>2013-02-02T09:02:36.000Z</time>
      </trkpt>
      <trkpt lat="43.64563" lon="5.67912">
        <ele>407.60000610352</ele>
        <time>2013-02-02T09:02:46.000Z</time>
      </trkpt>
      <trkpt lat="43.64608" lon="5.67926">
        <ele>408.39999389648</ele>
        <time>2013-02-02T09:02:57.000Z</time>
      </trkpt>
      <trkpt lat="43.64653" lon="5.6794">
        <ele>408.79998779297</ele>
        <time>2013-02-02T09:03:09.000Z</time>
      </trkpt>
      <trkpt lat="43.64697" lon="5.67958">
        <ele>409.20001220703</ele>
        <time>2013-02-02T09:03:21.000Z</time>
      </trkpt>
      <trkpt lat="43.64744" lon="5.67972">
        <ele>409</ele>
        <time>2013-02-02T09:03:35.000Z</time>
      </trkpt>
      <trkpt lat="43.64791" lon="5.6797">
        <ele>408.20001220703</ele>
        <time>2013-02-02T09:03:43.000Z</time>
      </trkpt>
      <trkpt lat="43.64836" lon="5.67969">
        <ele>407.60000610352</ele>
        <time>2013-02-02T09:03:53.000Z</time>
      </trkpt>
      <trkpt lat="43.64882" lon="5.67958">
        <ele>407.39999389648</ele>
        <time>2013-02-02T09:04:06.000Z</time>
      </trkpt>
      <trkpt lat="43.64911" lon="5.67995">
        <ele>410.39999389648</ele>
        <time>2013-02-02T09:04:24.000Z</time>
      </trkpt>
      <trkpt lat="43.64939" lon="5.68042">
        <ele>413</ele>
        <time>2013-02-02T09:04:42.000Z</time>
      </trkpt>
      <trkpt lat="43.64978" lon="5.68086">
        <ele>413.60000610352</ele>
        <time>2013-02-02T09:04:57.000Z</time>
      </trkpt>
      <trkpt lat="43.65015" lon="5.68123">
        <ele>414</ele>
        <time>2013-02-02T09:05:10.000Z</time>
      </trkpt>
      <trkpt lat="43.65053" lon="5.68154">
        <ele>413.39999389648</ele>
        <time>2013-02-02T09:05:23.000Z</time>
      </trkpt>
      <trkpt lat="43.65097" lon="5.68175">
        <ele>412.60000610352</ele>
        <time>2013-02-02T09:05:36.000Z</time>
      </trkpt>
      <trkpt lat="43.65139" lon="5.68203">
        <ele>413.79998779297</ele>
        <time>2013-02-02T09:05:49.000Z</time>
      </trkpt>
      <trkpt lat="43.65174" lon="5.68243">
        <ele>416.20001220703</ele>
        <time>2013-02-02T09:06:04.000Z</time>
      </trkpt>
      <trkpt lat="43.65216" lon="5.68264">
        <ele>418.60000610352</ele>
        <time>2013-02-02T09:06:19.000Z</time>
      </trkpt>
      <trkpt lat="43.65257" lon="5.68263">
        <ele>418.39999389648</ele>
        <time>2013-02-02T09:06:34.000Z</time>
      </trkpt>
      <trkpt lat="43.65295" lon="5.68301">
        <ele>418.79998779297</ele>
        <time>2013-02-02T09:06:46.000Z</time>
      </trkpt>
      <trkpt lat="43.65327" lon="5.6835">
        <ele>419.39999389648</ele>
        <time>2013-02-02T09:06:56.000Z</time>
      </trkpt>
      <trkpt lat="43.65369" lon="5.68347">
        <ele>419.20001220703</ele>
        <time>2013-02-02T09:07:07.000Z</time>
      </trkpt>
      <trkpt lat="43.65416" lon="5.68337">
        <ele>419</ele>
        <time>2013-02-02T09:07:22.000Z</time>
      </trkpt>
      <trkpt lat="43.65461" lon="5.68355">
        <ele>417.39999389648</ele>
        <time>2013-02-02T09:07:37.000Z</time>
      </trkpt>
      <trkpt lat="43.65505" lon="5.6837">
        <ele>416.20001220703</ele>
        <time>2013-02-02T09:07:48.000Z</time>
      </trkpt>
      <trkpt lat="43.65533" lon="5.68422">
        <ele>418.60000610352</ele>
        <time>2013-02-02T09:07:59.000Z</time>
      </trkpt>
      <trkpt lat="43.65562" lon="5.68462">
        <ele>419.39999389648</ele>
        <time>2013-02-02T09:08:12.000Z</time>
      </trkpt>
      <trkpt lat="43.65598" lon="5.6842">
        <ele>418</ele>
        <time>2013-02-02T09:08:24.000Z</time>
      </trkpt>
      <trkpt lat="43.65601" lon="5.6844">
        <ele>418.60000610352</ele>
        <time>2013-02-02T09:08:40.000Z</time>
      </trkpt>
      <trkpt lat="43.65585" lon="5.68501">
        <ele>421</ele>
        <time>2013-02-02T09:08:55.000Z</time>
      </trkpt>
      <trkpt lat="43.65582" lon="5.68567">
        <ele>425.60000610352</ele>
        <time>2013-02-02T09:09:12.000Z</time>
      </trkpt>
      <trkpt lat="43.65596" lon="5.68632">
        <ele>427</ele>
        <time>2013-02-02T09:09:26.000Z</time>
      </trkpt>
      <trkpt lat="43.65597" lon="5.68698">
        <ele>428</ele>
        <time>2013-02-02T09:09:37.000Z</time>
      </trkpt>
      <trkpt lat="43.65604" lon="5.6876">
        <ele>429</ele>
        <time>2013-02-02T09:09:48.000Z</time>
      </trkpt>
      <trkpt lat="43.65633" lon="5.68812">
        <ele>431.79998779297</ele>
        <time>2013-02-02T09:09:59.000Z</time>
      </trkpt>
      <trkpt lat="43.65667" lon="5.68862">
        <ele>433.20001220703</ele>
        <time>2013-02-02T09:10:12.000Z</time>
      </trkpt>
      <trkpt lat="43.65692" lon="5.68918">
        <ele>434.20001220703</ele>
        <time>2013-02-02T09:10:24.000Z</time>
      </trkpt>
      <trkpt lat="43.65716" lon="5.68971">
        <ele>435.60000610352</ele>
        <time>2013-02-02T09:10:36.000Z</time>
      </trkpt>
      <trkpt lat="43.65753" lon="5.6901">
        <ele>435.20001220703</ele>
        <time>2013-02-02T09:10:48.000Z</time>
      </trkpt>
      <trkpt lat="43.65789" lon="5.69049">
        <ele>436.20001220703</ele>
        <time>2013-02-02T09:11:01.000Z</time>
      </trkpt>
      <trkpt lat="43.65818" lon="5.69101">
        <ele>436</ele>
        <time>2013-02-02T09:11:12.000Z</time>
      </trkpt>
      <trkpt lat="43.65852" lon="5.69151">
        <ele>434.79998779297</ele>
        <time>2013-02-02T09:11:22.000Z</time>
      </trkpt>
      <trkpt lat="43.65887" lon="5.69191">
        <ele>435.79998779297</ele>
        <time>2013-02-02T09:11:31.000Z</time>
      </trkpt>
      <trkpt lat="43.65924" lon="5.69232">
        <ele>435.79998779297</ele>
        <time>2013-02-02T09:11:41.000Z</time>
      </trkpt>
      <trkpt lat="43.6594" lon="5.69294">
        <ele>436.39999389648</ele>
        <time>2013-02-02T09:11:52.000Z</time>
      </trkpt>
      <trkpt lat="43.65969" lon="5.69345">
        <ele>436.60000610352</ele>
        <time>2013-02-02T09:12:04.000Z</time>
      </trkpt>
      <trkpt lat="43.66004" lon="5.69393">
        <ele>435.39999389648</ele>
        <time>2013-02-02T09:12:15.000Z</time>
      </trkpt>
      <trkpt lat="43.66039" lon="5.69444">
        <ele>434.39999389648</ele>
        <time>2013-02-02T09:12:24.000Z</time>
      </trkpt>
      <trkpt lat="43.66068" lon="5.69503">
        <ele>434.20001220703</ele>
        <time>2013-02-02T09:12:31.000Z</time>
      </trkpt>
      <trkpt lat="43.66101" lon="5.69557">
        <ele>435.20001220703</ele>
        <time>2013-02-02T09:12:38.000Z</time>
      </trkpt>
      <trkpt lat="43.66137" lon="5.69602">
        <ele>435.60000610352</ele>
        <time>2013-02-02T09:12:46.000Z</time>
      </trkpt>
      <trkpt lat="43.66177" lon="5.69634">
        <ele>434.60000610352</ele>
        <time>2013-02-02T09:12:55.000Z</time>
      </trkpt>
      <trkpt lat="43.66222" lon="5.69665">
        <ele>431.79998779297</ele>
        <time>2013-02-02T09:13:05.000Z</time>
      </trkpt>
      <trkpt lat="43.66266" lon="5.69689">
        <ele>429.79998779297</ele>
        <time>2013-02-02T09:13:12.000Z</time>
      </trkpt>
      <trkpt lat="43.66307" lon="5.69717">
        <ele>428.20001220703</ele>
        <time>2013-02-02T09:13:18.000Z</time>
      </trkpt>
      <trkpt lat="43.66346" lon="5.69756">
        <ele>426.79998779297</ele>
        <time>2013-02-02T09:13:25.000Z</time>
      </trkpt>
      <trkpt lat="43.66383" lon="5.69771">
        <ele>423.60000610352</ele>
        <time>2013-02-02T09:13:35.000Z</time>
      </trkpt>
      <trkpt lat="43.66423" lon="5.69741">
        <ele>421.20001220703</ele>
        <time>2013-02-02T09:13:46.000Z</time>
      </trkpt>
      <trkpt lat="43.66467" lon="5.6975">
        <ele>419.39999389648</ele>
        <time>2013-02-02T09:13:56.000Z</time>
      </trkpt>
      <trkpt lat="43.66501" lon="5.69706">
        <ele>417.39999389648</ele>
        <time>2013-02-02T09:14:06.000Z</time>
      </trkpt>
      <trkpt lat="43.66541" lon="5.69682">
        <ele>415.20001220703</ele>
        <time>2013-02-02T09:14:20.000Z</time>
      </trkpt>
      <trkpt lat="43.66575" lon="5.69638">
        <ele>413.79998779297</ele>
        <time>2013-02-02T09:14:32.000Z</time>
      </trkpt>
      <trkpt lat="43.66606" lon="5.69594">
        <ele>412</ele>
        <time>2013-02-02T09:14:43.000Z</time>
      </trkpt>
      <trkpt lat="43.6664" lon="5.69548">
        <ele>411.79998779297</ele>
        <time>2013-02-02T09:14:56.000Z</time>
      </trkpt>
      <trkpt lat="43.6667" lon="5.69498">
        <ele>412.60000610352</ele>
        <time>2013-02-02T09:15:07.000Z</time>
      </trkpt>
      <trkpt lat="43.66698" lon="5.69446">
        <ele>411.20001220703</ele>
        <time>2013-02-02T09:15:21.000Z</time>
      </trkpt>
      <trkpt lat="43.66726" lon="5.69392">
        <ele>412</ele>
        <time>2013-02-02T09:15:33.000Z</time>
      </trkpt>
      <trkpt lat="43.66758" lon="5.69351">
        <ele>412.60000610352</ele>
        <time>2013-02-02T09:15:46.000Z</time>
      </trkpt>
      <trkpt lat="43.66803" lon="5.69362">
        <ele>410.39999389648</ele>
        <time>2013-02-02T09:15:58.000Z</time>
      </trkpt>
      <trkpt lat="43.66838" lon="5.69403">
        <ele>405.60000610352</ele>
        <time>2013-02-02T09:16:06.000Z</time>
      </trkpt>
      <trkpt lat="43.66879" lon="5.69439">
        <ele>401.60000610352</ele>
        <time>2013-02-02T09:16:13.000Z</time>
      </trkpt>
      <trkpt lat="43.66919" lon="5.69472">
        <ele>399.20001220703</ele>
        <time>2013-02-02T09:16:21.000Z</time>
      </trkpt>
      <trkpt lat="43.66955" lon="5.69522">
        <ele>397.60000610352</ele>
        <time>2013-02-02T09:16:29.000Z</time>
      </trkpt>
      <trkpt lat="43.66978" lon="5.69572">
        <ele>396.60000610352</ele>
        <time>2013-02-02T09:16:41.000Z</time>
      </trkpt>
      <trkpt lat="43.66944" lon="5.69585">
        <ele>398</ele>
        <time>2013-02-02T09:17:25.000Z</time>
      </trkpt>
      <trkpt lat="43.66905" lon="5.69557">
        <ele>399</ele>
        <time>2013-02-02T09:17:45.000Z</time>
      </trkpt>
      <trkpt lat="43.66858" lon="5.69561">
        <ele>399.39999389648</ele>
        <time>2013-02-02T09:18:01.000Z</time>
      </trkpt>
      <trkpt lat="43.66815" lon="5.69585">
        <ele>399.60000610352</ele>
        <time>2013-02-02T09:18:17.000Z</time>
      </trkpt>
      <trkpt lat="43.66771" lon="5.69605">
        <ele>401.39999389648</ele>
        <time>2013-02-02T09:18:32.000Z</time>
      </trkpt>
      <trkpt lat="43.66731" lon="5.69626">
        <ele>403</ele>
        <time>2013-02-02T09:18:48.000Z</time>
      </trkpt>
      <trkpt lat="43.66692" lon="5.6967">
        <ele>402.60000610352</ele>
        <time>2013-02-02T09:19:09.000Z</time>
      </trkpt>
      <trkpt lat="43.66661" lon="5.69713">
        <ele>403</ele>
        <time>2013-02-02T09:19:26.000Z</time>
      </trkpt>
      <trkpt lat="43.66646" lon="5.69776">
        <ele>404.79998779297</ele>
        <time>2013-02-02T09:19:47.000Z</time>
      </trkpt>
      <trkpt lat="43.66625" lon="5.69835">
        <ele>407.39999389648</ele>
        <time>2013-02-02T09:20:28.000Z</time>
      </trkpt>
      <trkpt lat="43.66617" lon="5.69899">
        <ele>409.79998779297</ele>
        <time>2013-02-02T09:20:45.000Z</time>
      </trkpt>
      <trkpt lat="43.66608" lon="5.69961">
        <ele>410.20001220703</ele>
        <time>2013-02-02T09:20:59.000Z</time>
      </trkpt>
      <trkpt lat="43.66602" lon="5.70021">
        <ele>410.60000610352</ele>
        <time>2013-02-02T09:21:13.000Z</time>
      </trkpt>
      <trkpt lat="43.666" lon="5.70087">
        <ele>412.39999389648</ele>
        <time>2013-02-02T09:21:27.000Z</time>
      </trkpt>
      <trkpt lat="43.66573" lon="5.70142">
        <ele>412.39999389648</ele>
        <time>2013-02-02T09:21:47.000Z</time>
      </trkpt>
      <trkpt lat="43.66553" lon="5.702">
        <ele>414.20001220703</ele>
        <time>2013-02-02T09:22:05.000Z</time>
      </trkpt>
      <trkpt lat="43.66548" lon="5.70262">
        <ele>416.20001220703</ele>
        <time>2013-02-02T09:22:22.000Z</time>
      </trkpt>
      <trkpt lat="43.66554" lon="5.70327">
        <ele>419.39999389648</ele>
        <time>2013-02-02T09:22:39.000Z</time>
      </trkpt>
      <trkpt lat="43.66533" lon="5.70385">
        <ele>418</ele>
        <time>2013-02-02T09:22:55.000Z</time>
      </trkpt>
      <trkpt lat="43.6651" lon="5.70438">
        <ele>417</ele>
        <time>2013-02-02T09:23:13.000Z</time>
      </trkpt>
      <trkpt lat="43.66517" lon="5.70498">
        <ele>421</ele>
        <time>2013-02-02T09:24:11.000Z</time>
      </trkpt>
      <trkpt lat="43.66532" lon="5.70558">
        <ele>424</ele>
        <time>2013-02-02T09:24:34.000Z</time>
      </trkpt>
      <trkpt lat="43.66547" lon="5.70618">
        <ele>427.39999389648</ele>
        <time>2013-02-02T09:25:01.000Z</time>
      </trkpt>
      <trkpt lat="43.6656" lon="5.70678">
        <ele>430.60000610352</ele>
        <time>2013-02-02T09:25:22.000Z</time>
      </trkpt>
      <trkpt lat="43.66579" lon="5.70737">
        <ele>432.60000610352</ele>
        <time>2013-02-02T09:25:42.000Z</time>
      </trkpt>
      <trkpt lat="43.66595" lon="5.70796">
        <ele>435</ele>
        <time>2013-02-02T09:26:15.000Z</time>
      </trkpt>
      <trkpt lat="43.6661" lon="5.70859">
        <ele>437.39999389648</ele>
        <time>2013-02-02T09:27:02.000Z</time>
      </trkpt>
      <trkpt lat="43.66605" lon="5.70924">
        <ele>440.20001220703</ele>
        <time>2013-02-02T09:27:29.000Z</time>
      </trkpt>
      <trkpt lat="43.66613" lon="5.70988">
        <ele>445</ele>
        <time>2013-02-02T09:27:56.000Z</time>
      </trkpt>
      <trkpt lat="43.66619" lon="5.7105">
        <ele>448</ele>
        <time>2013-02-02T09:28:22.000Z</time>
      </trkpt>
      <trkpt lat="43.66625" lon="5.71105">
        <ele>450.60000610352</ele>
        <time>2013-02-02T09:31:05.000Z</time>
      </trkpt>
      <trkpt lat="43.66651" lon="5.71155">
        <ele>453.39999389648</ele>
        <time>2013-02-02T09:31:22.000Z</time>
      </trkpt>
      <trkpt lat="43.66685" lon="5.71197">
        <ele>453.60000610352</ele>
        <time>2013-02-02T09:31:36.000Z</time>
      </trkpt>
      <trkpt lat="43.66704" lon="5.71246">
        <ele>452</ele>
        <time>2013-02-02T09:31:53.000Z</time>
      </trkpt>
      <trkpt lat="43.66664" lon="5.71277">
        <ele>447.60000610352</ele>
        <time>2013-02-02T09:32:08.000Z</time>
      </trkpt>
      <trkpt lat="43.6662" lon="5.71305">
        <ele>445.79998779297</ele>
        <time>2013-02-02T09:32:17.000Z</time>
      </trkpt>
      <trkpt lat="43.66574" lon="5.71325">
        <ele>446.20001220703</ele>
        <time>2013-02-02T09:32:24.000Z</time>
      </trkpt>
      <trkpt lat="43.66538" lon="5.71356">
        <ele>446.79998779297</ele>
        <time>2013-02-02T09:32:31.000Z</time>
      </trkpt>
      <trkpt lat="43.66562" lon="5.71402">
        <ele>439.39999389648</ele>
        <time>2013-02-02T09:32:40.000Z</time>
      </trkpt>
      <trkpt lat="43.66614" lon="5.71407">
        <ele>433.60000610352</ele>
        <time>2013-02-02T09:32:48.000Z</time>
      </trkpt>
      <trkpt lat="43.66661" lon="5.71427">
        <ele>427.39999389648</ele>
        <time>2013-02-02T09:32:55.000Z</time>
      </trkpt>
      <trkpt lat="43.66694" lon="5.71472">
        <ele>426.39999389648</ele>
        <time>2013-02-02T09:33:02.000Z</time>
      </trkpt>
      <trkpt lat="43.66708" lon="5.71532">
        <ele>424.79998779297</ele>
        <time>2013-02-02T09:33:09.000Z</time>
      </trkpt>
      <trkpt lat="43.66741" lon="5.71582">
        <ele>418.60000610352</ele>
        <time>2013-02-02T09:33:17.000Z</time>
      </trkpt>
      <trkpt lat="43.66776" lon="5.71625">
        <ele>418.60000610352</ele>
        <time>2013-02-02T09:33:25.000Z</time>
      </trkpt>
      <trkpt lat="43.66806" lon="5.71672">
        <ele>411</ele>
        <time>2013-02-02T09:33:40.000Z</time>
      </trkpt>
      <trkpt lat="43.66811" lon="5.71729">
        <ele>409</ele>
        <time>2013-02-02T09:34:06.000Z</time>
      </trkpt>
      <trkpt lat="43.66774" lon="5.71778">
        <ele>418.60000610352</ele>
        <time>2013-02-02T09:34:31.000Z</time>
      </trkpt>
      <trkpt lat="43.66739" lon="5.71824">
        <ele>424.20001220703</ele>
        <time>2013-02-02T09:34:57.000Z</time>
      </trkpt>
      <trkpt lat="43.66733" lon="5.71883">
        <ele>428.60000610352</ele>
        <time>2013-02-02T09:35:27.000Z</time>
      </trkpt>
      <trkpt lat="43.66772" lon="5.71914">
        <ele>426.20001220703</ele>
        <time>2013-02-02T09:36:41.000Z</time>
      </trkpt>
      <trkpt lat="43.66815" lon="5.71946">
        <ele>424.20001220703</ele>
        <time>2013-02-02T09:36:54.000Z</time>
      </trkpt>
      <trkpt lat="43.66832" lon="5.72008">
        <ele>426</ele>
        <time>2013-02-02T09:37:07.000Z</time>
      </trkpt>
      <trkpt lat="43.66837" lon="5.72073">
        <ele>424.60000610352</ele>
        <time>2013-02-02T09:37:19.000Z</time>
      </trkpt>
      <trkpt lat="43.66802" lon="5.72118">
        <ele>422.39999389648</ele>
        <time>2013-02-02T09:37:52.000Z</time>
      </trkpt>
      <trkpt lat="43.66773" lon="5.72163">
        <ele>416.39999389648</ele>
        <time>2013-02-02T09:38:04.000Z</time>
      </trkpt>
      <trkpt lat="43.66737" lon="5.72202">
        <ele>412.60000610352</ele>
        <time>2013-02-02T09:38:18.000Z</time>
      </trkpt>
      <trkpt lat="43.66708" lon="5.72256">
        <ele>404.60000610352</ele>
        <time>2013-02-02T09:38:28.000Z</time>
      </trkpt>
      <trkpt lat="43.66698" lon="5.72319">
        <ele>391.79998779297</ele>
        <time>2013-02-02T09:38:39.000Z</time>
      </trkpt>
      <trkpt lat="43.66719" lon="5.7237">
        <ele>380.79998779297</ele>
        <time>2013-02-02T09:38:53.000Z</time>
      </trkpt>
      <trkpt lat="43.66757" lon="5.72401">
        <ele>372.60000610352</ele>
        <time>2013-02-02T09:39:06.000Z</time>
      </trkpt>
      <trkpt lat="43.6679" lon="5.72444">
        <ele>364</ele>
        <time>2013-02-02T09:39:15.000Z</time>
      </trkpt>
      <trkpt lat="43.66763" lon="5.72477">
        <ele>361.79998779297</ele>
        <time>2013-02-02T09:41:19.000Z</time>
      </trkpt>
      <trkpt lat="43.66737" lon="5.72526">
        <ele>358.60000610352</ele>
        <time>2013-02-02T09:41:32.000Z</time>
      </trkpt>
      <trkpt lat="43.66728" lon="5.72586">
        <ele>354</ele>
        <time>2013-02-02T09:41:48.000Z</time>
      </trkpt>
      <trkpt lat="43.66767" lon="5.72618">
        <ele>349.60000610352</ele>
        <time>2013-02-02T09:42:02.000Z</time>
      </trkpt>
      <trkpt lat="43.66775" lon="5.72685">
        <ele>347.20001220703</ele>
        <time>2013-02-02T09:42:13.000Z</time>
      </trkpt>
      <trkpt lat="43.66787" lon="5.72746">
        <ele>345.79998779297</ele>
        <time>2013-02-02T09:42:23.000Z</time>
      </trkpt>
      <trkpt lat="43.66816" lon="5.72796">
        <ele>343.60000610352</ele>
        <time>2013-02-02T09:42:32.000Z</time>
      </trkpt>
      <trkpt lat="43.66857" lon="5.72822">
        <ele>336.79998779297</ele>
        <time>2013-02-02T09:42:56.000Z</time>
      </trkpt>
      <trkpt lat="43.66884" lon="5.72878">
        <ele>328.79998779297</ele>
        <time>2013-02-02T09:43:14.000Z</time>
      </trkpt>
      <trkpt lat="43.66917" lon="5.72924">
        <ele>316.39999389648</ele>
        <time>2013-02-02T09:43:22.000Z</time>
      </trkpt>
      <trkpt lat="43.66953" lon="5.72957">
        <ele>311.39999389648</ele>
        <time>2013-02-02T09:43:32.000Z</time>
      </trkpt>
      <trkpt lat="43.67002" lon="5.72975">
        <ele>302.39999389648</ele>
        <time>2013-02-02T09:43:40.000Z</time>
      </trkpt>
      <trkpt lat="43.67051" lon="5.72977">
        <ele>299.60000610352</ele>
        <time>2013-02-02T09:43:47.000Z</time>
      </trkpt>
      <trkpt lat="43.67083" lon="5.72947">
        <ele>298.79998779297</ele>
        <time>2013-02-02T09:43:57.000Z</time>
      </trkpt>
      <trkpt lat="43.67125" lon="5.72987">
        <ele>296</ele>
        <time>2013-02-02T09:44:05.000Z</time>
      </trkpt>
      <trkpt lat="43.67154" lon="5.73036">
        <ele>289.79998779297</ele>
        <time>2013-02-02T09:44:12.000Z</time>
      </trkpt>
      <trkpt lat="43.67162" lon="5.73096">
        <ele>283.79998779297</ele>
        <time>2013-02-02T09:44:19.000Z</time>
      </trkpt>
      <trkpt lat="43.67139" lon="5.73157">
        <ele>288</ele>
        <time>2013-02-02T09:44:27.000Z</time>
      </trkpt>
      <trkpt lat="43.6712" lon="5.73188">
        <ele>289.20001220703</ele>
        <time>2013-02-02T09:47:10.000Z</time>
      </trkpt>
      <trkpt lat="43.67078" lon="5.73207">
        <ele>292.60000610352</ele>
        <time>2013-02-02T09:47:34.000Z</time>
      </trkpt>
      <trkpt lat="43.67038" lon="5.73243">
        <ele>297</ele>
        <time>2013-02-02T09:48:00.000Z</time>
      </trkpt>
      <trkpt lat="43.67001" lon="5.73287">
        <ele>298.60000610352</ele>
        <time>2013-02-02T09:48:20.000Z</time>
      </trkpt>
      <trkpt lat="43.66961" lon="5.73327">
        <ele>299.60000610352</ele>
        <time>2013-02-02T09:48:37.000Z</time>
      </trkpt>
      <trkpt lat="43.66925" lon="5.73372">
        <ele>299.79998779297</ele>
        <time>2013-02-02T09:48:52.000Z</time>
      </trkpt>
      <trkpt lat="43.66888" lon="5.73411">
        <ele>299.20001220703</ele>
        <time>2013-02-02T09:49:05.000Z</time>
      </trkpt>
      <trkpt lat="43.66858" lon="5.73457">
        <ele>296.79998779297</ele>
        <time>2013-02-02T09:49:17.000Z</time>
      </trkpt>
      <trkpt lat="43.66873" lon="5.73513">
        <ele>292</ele>
        <time>2013-02-02T09:49:27.000Z</time>
      </trkpt>
      <trkpt lat="43.66859" lon="5.73567">
        <ele>290.20001220703</ele>
        <time>2013-02-02T09:49:38.000Z</time>
      </trkpt>
      <trkpt lat="43.66851" lon="5.73629">
        <ele>288</ele>
        <time>2013-02-02T09:49:49.000Z</time>
      </trkpt>
      <trkpt lat="43.66821" lon="5.73679">
        <ele>287</ele>
        <time>2013-02-02T09:50:00.000Z</time>
      </trkpt>
      <trkpt lat="43.66786" lon="5.73726">
        <ele>286.79998779297</ele>
        <time>2013-02-02T09:50:09.000Z</time>
      </trkpt>
      <trkpt lat="43.66771" lon="5.73785">
        <ele>286.39999389648</ele>
        <time>2013-02-02T09:50:16.000Z</time>
      </trkpt>
      <trkpt lat="43.66791" lon="5.73842">
        <ele>284.20001220703</ele>
        <time>2013-02-02T09:50:25.000Z</time>
      </trkpt>
      <trkpt lat="43.66752" lon="5.73881">
        <ele>285</ele>
        <time>2013-02-02T09:50:35.000Z</time>
      </trkpt>
      <trkpt lat="43.66715" lon="5.73927">
        <ele>288.39999389648</ele>
        <time>2013-02-02T09:50:44.000Z</time>
      </trkpt>
      <trkpt lat="43.66681" lon="5.73976">
        <ele>287.20001220703</ele>
        <time>2013-02-02T09:50:51.000Z</time>
      </trkpt>
      <trkpt lat="43.66655" lon="5.7403">
        <ele>285.79998779297</ele>
        <time>2013-02-02T09:51:00.000Z</time>
      </trkpt>
      <trkpt lat="43.66634" lon="5.7409">
        <ele>288.39999389648</ele>
        <time>2013-02-02T09:51:12.000Z</time>
      </trkpt>
      <trkpt lat="43.66629" lon="5.74156">
        <ele>286.79998779297</ele>
        <time>2013-02-02T09:51:25.000Z</time>
      </trkpt>
      <trkpt lat="43.66604" lon="5.74208">
        <ele>288.60000610352</ele>
        <time>2013-02-02T09:51:40.000Z</time>
      </trkpt>
      <trkpt lat="43.6659" lon="5.7427">
        <ele>287.60000610352</ele>
        <time>2013-02-02T09:51:56.000Z</time>
      </trkpt>
      <trkpt lat="43.66555" lon="5.74316">
        <ele>292.20001220703</ele>
        <time>2013-02-02T09:52:16.000Z</time>
      </trkpt>
      <trkpt lat="43.66539" lon="5.74378">
        <ele>293</ele>
        <time>2013-02-02T09:52:38.000Z</time>
      </trkpt>
      <trkpt lat="43.66544" lon="5.74444">
        <ele>290.39999389648</ele>
        <time>2013-02-02T09:52:54.000Z</time>
      </trkpt>
      <trkpt lat="43.66539" lon="5.74506">
        <ele>290</ele>
        <time>2013-02-02T09:53:11.000Z</time>
      </trkpt>
      <trkpt lat="43.66527" lon="5.74569">
        <ele>288.60000610352</ele>
        <time>2013-02-02T09:53:26.000Z</time>
      </trkpt>
      <trkpt lat="43.66489" lon="5.74615">
        <ele>289.20001220703</ele>
        <time>2013-02-02T09:53:39.000Z</time>
      </trkpt>
      <trkpt lat="43.66469" lon="5.74668">
        <ele>289</ele>
        <time>2013-02-02T09:53:49.000Z</time>
      </trkpt>
      <trkpt lat="43.66452" lon="5.74725">
        <ele>291.39999389648</ele>
        <time>2013-02-02T09:54:01.000Z</time>
      </trkpt>
      <trkpt lat="43.66433" lon="5.74782">
        <ele>292.39999389648</ele>
        <time>2013-02-02T09:54:13.000Z</time>
      </trkpt>
      <trkpt lat="43.66423" lon="5.74844">
        <ele>291</ele>
        <time>2013-02-02T09:54:29.000Z</time>
      </trkpt>
      <trkpt lat="43.66408" lon="5.74907">
        <ele>290.79998779297</ele>
        <time>2013-02-02T09:54:45.000Z</time>
      </trkpt>
      <trkpt lat="43.66381" lon="5.74961">
        <ele>292.20001220703</ele>
        <time>2013-02-02T09:55:01.000Z</time>
      </trkpt>
      <trkpt lat="43.66383" lon="5.75025">
        <ele>291.39999389648</ele>
        <time>2013-02-02T09:55:17.000Z</time>
      </trkpt>
      <trkpt lat="43.66384" lon="5.75084">
        <ele>292</ele>
        <time>2013-02-02T09:55:34.000Z</time>
      </trkpt>
      <trkpt lat="43.66382" lon="5.75148">
        <ele>292.39999389648</ele>
        <time>2013-02-02T09:55:59.000Z</time>
      </trkpt>
      <trkpt lat="43.66392" lon="5.75208">
        <ele>293.20001220703</ele>
        <time>2013-02-02T09:56:18.000Z</time>
      </trkpt>
      <trkpt lat="43.66399" lon="5.75268">
        <ele>294.20001220703</ele>
        <time>2013-02-02T09:56:35.000Z</time>
      </trkpt>
      <trkpt lat="43.66405" lon="5.75331">
        <ele>293.79998779297</ele>
        <time>2013-02-02T09:56:52.000Z</time>
      </trkpt>
      <trkpt lat="43.66397" lon="5.75392">
        <ele>293.60000610352</ele>
        <time>2013-02-02T09:57:07.000Z</time>
      </trkpt>
      <trkpt lat="43.66424" lon="5.75436">
        <ele>293.79998779297</ele>
        <time>2013-02-02T10:00:58.000Z</time>
      </trkpt>
      <trkpt lat="43.66416" lon="5.75465">
        <ele>293.39999389648</ele>
        <time>2013-02-02T10:01:17.000Z</time>
      </trkpt>
      <trkpt lat="43.66369" lon="5.75491">
        <ele>291.79998779297</ele>
        <time>2013-02-02T10:01:27.000Z</time>
      </trkpt>
      <trkpt lat="43.66327" lon="5.75518">
        <ele>290.60000610352</ele>
        <time>2013-02-02T10:01:35.000Z</time>
      </trkpt>
      <trkpt lat="43.66284" lon="5.75556">
        <ele>291.39999389648</ele>
        <time>2013-02-02T10:01:43.000Z</time>
      </trkpt>
      <trkpt lat="43.66246" lon="5.75595">
        <ele>292.60000610352</ele>
        <time>2013-02-02T10:01:50.000Z</time>
      </trkpt>
      <trkpt lat="43.66202" lon="5.75627">
        <ele>295</ele>
        <time>2013-02-02T10:01:58.000Z</time>
      </trkpt>
      <trkpt lat="43.6616" lon="5.75655">
        <ele>295.20001220703</ele>
        <time>2013-02-02T10:02:05.000Z</time>
      </trkpt>
      <trkpt lat="43.66116" lon="5.75683">
        <ele>295.60000610352</ele>
        <time>2013-02-02T10:02:13.000Z</time>
      </trkpt>
      <trkpt lat="43.6607" lon="5.75709">
        <ele>297.79998779297</ele>
        <time>2013-02-02T10:02:21.000Z</time>
      </trkpt>
      <trkpt lat="43.66025" lon="5.7572">
        <ele>300</ele>
        <time>2013-02-02T10:02:29.000Z</time>
      </trkpt>
      <trkpt lat="43.65978" lon="5.75724">
        <ele>299.60000610352</ele>
        <time>2013-02-02T10:02:37.000Z</time>
      </trkpt>
      <trkpt lat="43.65932" lon="5.75728">
        <ele>297.39999389648</ele>
        <time>2013-02-02T10:02:45.000Z</time>
      </trkpt>
      <trkpt lat="43.65887" lon="5.7573">
        <ele>296.79998779297</ele>
        <time>2013-02-02T10:02:53.000Z</time>
      </trkpt>
      <trkpt lat="43.65841" lon="5.75719">
        <ele>296.79998779297</ele>
        <time>2013-02-02T10:03:02.000Z</time>
      </trkpt>
      <trkpt lat="43.65814" lon="5.75678">
        <ele>296</ele>
        <time>2013-02-02T10:03:14.000Z</time>
      </trkpt>
      <trkpt lat="43.65781" lon="5.75629">
        <ele>299.20001220703</ele>
        <time>2013-02-02T10:03:27.000Z</time>
      </trkpt>
      <trkpt lat="43.65754" lon="5.75585">
        <ele>299.20001220703</ele>
        <time>2013-02-02T10:03:41.000Z</time>
      </trkpt>
      <trkpt lat="43.65712" lon="5.75562">
        <ele>300.60000610352</ele>
        <time>2013-02-02T10:03:59.000Z</time>
      </trkpt>
      <trkpt lat="43.65677" lon="5.75541">
        <ele>301.20001220703</ele>
        <time>2013-02-02T10:04:25.000Z</time>
      </trkpt>
      <trkpt lat="43.65648" lon="5.75499">
        <ele>306.20001220703</ele>
        <time>2013-02-02T10:04:55.000Z</time>
      </trkpt>
      <trkpt lat="43.6562" lon="5.75451">
        <ele>315.79998779297</ele>
        <time>2013-02-02T10:05:20.000Z</time>
      </trkpt>
      <trkpt lat="43.65583" lon="5.75414">
        <ele>319.60000610352</ele>
        <time>2013-02-02T10:05:53.000Z</time>
      </trkpt>
      <trkpt lat="43.65546" lon="5.75376">
        <ele>328.39999389648</ele>
        <time>2013-02-02T10:06:23.000Z</time>
      </trkpt>
      <trkpt lat="43.6551" lon="5.75334">
        <ele>334.39999389648</ele>
        <time>2013-02-02T10:06:51.000Z</time>
      </trkpt>
      <trkpt lat="43.65465" lon="5.75311">
        <ele>341.39999389648</ele>
        <time>2013-02-02T10:07:17.000Z</time>
      </trkpt>
      <trkpt lat="43.65422" lon="5.75283">
        <ele>347.60000610352</ele>
        <time>2013-02-02T10:07:41.000Z</time>
      </trkpt>
      <trkpt lat="43.65379" lon="5.75252">
        <ele>355.79998779297</ele>
        <time>2013-02-02T10:08:08.000Z</time>
      </trkpt>
      <trkpt lat="43.65333" lon="5.75245">
        <ele>360.60000610352</ele>
        <time>2013-02-02T10:08:43.000Z</time>
      </trkpt>
      <trkpt lat="43.65303" lon="5.75229">
        <ele>360.60000610352</ele>
        <time>2013-02-02T10:09:19.000Z</time>
      </trkpt>
      <trkpt lat="43.65335" lon="5.75173">
        <ele>371.79998779297</ele>
        <time>2013-02-02T10:10:04.000Z</time>
      </trkpt>
      <trkpt lat="43.65369" lon="5.75126">
        <ele>375.79998779297</ele>
        <time>2013-02-02T10:10:47.000Z</time>
      </trkpt>
      <trkpt lat="43.65354" lon="5.75078">
        <ele>381.20001220703</ele>
        <time>2013-02-02T10:16:31.000Z</time>
      </trkpt>
      <trkpt lat="43.65327" lon="5.75026">
        <ele>381</ele>
        <time>2013-02-02T10:16:45.000Z</time>
      </trkpt>
      <trkpt lat="43.65286" lon="5.74993">
        <ele>380</ele>
        <time>2013-02-02T10:17:02.000Z</time>
      </trkpt>
      <trkpt lat="43.65245" lon="5.74966">
        <ele>377.79998779297</ele>
        <time>2013-02-02T10:17:21.000Z</time>
      </trkpt>
      <trkpt lat="43.65244" lon="5.74906">
        <ele>378.60000610352</ele>
        <time>2013-02-02T10:17:37.000Z</time>
      </trkpt>
      <trkpt lat="43.65253" lon="5.7485">
        <ele>384</ele>
        <time>2013-02-02T10:17:52.000Z</time>
      </trkpt>
      <trkpt lat="43.6524" lon="5.74789">
        <ele>388</ele>
        <time>2013-02-02T10:18:07.000Z</time>
      </trkpt>
      <trkpt lat="43.65217" lon="5.74734">
        <ele>391.79998779297</ele>
        <time>2013-02-02T10:18:24.000Z</time>
      </trkpt>
      <trkpt lat="43.65188" lon="5.74685">
        <ele>394</ele>
        <time>2013-02-02T10:18:41.000Z</time>
      </trkpt>
      <trkpt lat="43.65172" lon="5.74627">
        <ele>395.39999389648</ele>
        <time>2013-02-02T10:18:57.000Z</time>
      </trkpt>
      <trkpt lat="43.65154" lon="5.74566">
        <ele>393.39999389648</ele>
        <time>2013-02-02T10:19:12.000Z</time>
      </trkpt>
      <trkpt lat="43.65157" lon="5.745">
        <ele>393.60000610352</ele>
        <time>2013-02-02T10:19:25.000Z</time>
      </trkpt>
      <trkpt lat="43.65158" lon="5.74434">
        <ele>393.20001220703</ele>
        <time>2013-02-02T10:19:37.000Z</time>
      </trkpt>
      <trkpt lat="43.65141" lon="5.74374">
        <ele>394.60000610352</ele>
        <time>2013-02-02T10:19:51.000Z</time>
      </trkpt>
      <trkpt lat="43.65113" lon="5.74318">
        <ele>397.79998779297</ele>
        <time>2013-02-02T10:20:09.000Z</time>
      </trkpt>
      <trkpt lat="43.65078" lon="5.74275">
        <ele>400</ele>
        <time>2013-02-02T10:20:24.000Z</time>
      </trkpt>
      <trkpt lat="43.65032" lon="5.74259">
        <ele>400.60000610352</ele>
        <time>2013-02-02T10:20:33.000Z</time>
      </trkpt>
      <trkpt lat="43.64985" lon="5.74265">
        <ele>400</ele>
        <time>2013-02-02T10:20:45.000Z</time>
      </trkpt>
      <trkpt lat="43.6494" lon="5.74273">
        <ele>401</ele>
        <time>2013-02-02T10:20:57.000Z</time>
      </trkpt>
      <trkpt lat="43.64892" lon="5.74278">
        <ele>402</ele>
        <time>2013-02-02T10:21:10.000Z</time>
      </trkpt>
      <trkpt lat="43.64847" lon="5.74287">
        <ele>402.60000610352</ele>
        <time>2013-02-02T10:21:32.000Z</time>
      </trkpt>
      <trkpt lat="43.64801" lon="5.74289">
        <ele>405.79998779297</ele>
        <time>2013-02-02T10:21:56.000Z</time>
      </trkpt>
      <trkpt lat="43.64756" lon="5.743">
        <ele>409.39999389648</ele>
        <time>2013-02-02T10:22:19.000Z</time>
      </trkpt>
      <trkpt lat="43.6471" lon="5.74306">
        <ele>412</ele>
        <time>2013-02-02T10:22:40.000Z</time>
      </trkpt>
      <trkpt lat="43.64662" lon="5.74311">
        <ele>414.60000610352</ele>
        <time>2013-02-02T10:22:56.000Z</time>
      </trkpt>
      <trkpt lat="43.64614" lon="5.74314">
        <ele>414.79998779297</ele>
        <time>2013-02-02T10:23:15.000Z</time>
      </trkpt>
      <trkpt lat="43.64565" lon="5.74316">
        <ele>415.79998779297</ele>
        <time>2013-02-02T10:23:32.000Z</time>
      </trkpt>
      <trkpt lat="43.64517" lon="5.74317">
        <ele>418.79998779297</ele>
        <time>2013-02-02T10:23:49.000Z</time>
      </trkpt>
      <trkpt lat="43.64469" lon="5.74317">
        <ele>421</ele>
        <time>2013-02-02T10:24:06.000Z</time>
      </trkpt>
      <trkpt lat="43.6442" lon="5.74318">
        <ele>422.60000610352</ele>
        <time>2013-02-02T10:24:20.000Z</time>
      </trkpt>
      <trkpt lat="43.64373" lon="5.74323">
        <ele>423.39999389648</ele>
        <time>2013-02-02T10:24:33.000Z</time>
      </trkpt>
      <trkpt lat="43.64327" lon="5.74324">
        <ele>424.20001220703</ele>
        <time>2013-02-02T10:24:46.000Z</time>
      </trkpt>
      <trkpt lat="43.64282" lon="5.74324">
        <ele>424.79998779297</ele>
        <time>2013-02-02T10:24:59.000Z</time>
      </trkpt>
      <trkpt lat="43.64236" lon="5.74325">
        <ele>424.39999389648</ele>
        <time>2013-02-02T10:25:12.000Z</time>
      </trkpt>
      <trkpt lat="43.6419" lon="5.74327">
        <ele>422.20001220703</ele>
        <time>2013-02-02T10:25:22.000Z</time>
      </trkpt>
      <trkpt lat="43.64144" lon="5.7433">
        <ele>419.39999389648</ele>
        <time>2013-02-02T10:25:32.000Z</time>
      </trkpt>
      <trkpt lat="43.64095" lon="5.74332">
        <ele>415.79998779297</ele>
        <time>2013-02-02T10:25:41.000Z</time>
      </trkpt>
      <trkpt lat="43.64046" lon="5.74335">
        <ele>415.20001220703</ele>
        <time>2013-02-02T10:25:49.000Z</time>
      </trkpt>
      <trkpt lat="43.63998" lon="5.74338">
        <ele>415.79998779297</ele>
        <time>2013-02-02T10:25:58.000Z</time>
      </trkpt>
      <trkpt lat="43.63952" lon="5.74342">
        <ele>419</ele>
        <time>2013-02-02T10:26:07.000Z</time>
      </trkpt>
      <trkpt lat="43.63906" lon="5.74346">
        <ele>420.60000610352</ele>
        <time>2013-02-02T10:26:17.000Z</time>
      </trkpt>
      <trkpt lat="43.63859" lon="5.74349">
        <ele>417.20001220703</ele>
        <time>2013-02-02T10:26:29.000Z</time>
      </trkpt>
      <trkpt lat="43.63827" lon="5.74315">
        <ele>412.20001220703</ele>
        <time>2013-02-02T10:27:02.000Z</time>
      </trkpt>
      <trkpt lat="43.63827" lon="5.74254">
        <ele>409.39999389648</ele>
        <time>2013-02-02T10:27:08.000Z</time>
      </trkpt>
      <trkpt lat="43.63824" lon="5.74185">
        <ele>407.39999389648</ele>
        <time>2013-02-02T10:27:14.000Z</time>
      </trkpt>
      <trkpt lat="43.6381" lon="5.74158">
        <ele>403</ele>
        <time>2013-02-02T10:27:22.000Z</time>
      </trkpt>
      <trkpt lat="43.63796" lon="5.74226">
        <ele>400.39999389648</ele>
        <time>2013-02-02T10:27:28.000Z</time>
      </trkpt>
      <trkpt lat="43.6377" lon="5.74286">
        <ele>395</ele>
        <time>2013-02-02T10:27:33.000Z</time>
      </trkpt>
      <trkpt lat="43.63747" lon="5.74349">
        <ele>392</ele>
        <time>2013-02-02T10:27:39.000Z</time>
      </trkpt>
      <trkpt lat="43.63706" lon="5.74393">
        <ele>387</ele>
        <time>2013-02-02T10:27:45.000Z</time>
      </trkpt>
      <trkpt lat="43.63663" lon="5.74435">
        <ele>379.60000610352</ele>
        <time>2013-02-02T10:27:51.000Z</time>
      </trkpt>
      <trkpt lat="43.63613" lon="5.74429">
        <ele>374</ele>
        <time>2013-02-02T10:27:56.000Z</time>
      </trkpt>
      <trkpt lat="43.63564" lon="5.74416">
        <ele>371.39999389648</ele>
        <time>2013-02-02T10:28:01.000Z</time>
      </trkpt>
      <trkpt lat="43.63519" lon="5.7441">
        <ele>372.60000610352</ele>
        <time>2013-02-02T10:28:09.000Z</time>
      </trkpt>
      <trkpt lat="43.63474" lon="5.74394">
        <ele>375.20001220703</ele>
        <time>2013-02-02T10:28:20.000Z</time>
      </trkpt>
      <trkpt lat="43.63431" lon="5.74388">
        <ele>378.39999389648</ele>
        <time>2013-02-02T10:28:30.000Z</time>
      </trkpt>
      <trkpt lat="43.63388" lon="5.74417">
        <ele>380</ele>
        <time>2013-02-02T10:28:40.000Z</time>
      </trkpt>
      <trkpt lat="43.63348" lon="5.74447">
        <ele>384.20001220703</ele>
        <time>2013-02-02T10:28:51.000Z</time>
      </trkpt>
      <trkpt lat="43.63307" lon="5.74476">
        <ele>390.39999389648</ele>
        <time>2013-02-02T10:29:04.000Z</time>
      </trkpt>
      <trkpt lat="43.63268" lon="5.74504">
        <ele>395.79998779297</ele>
        <time>2013-02-02T10:29:20.000Z</time>
      </trkpt>
      <trkpt lat="43.63241" lon="5.74551">
        <ele>398.79998779297</ele>
        <time>2013-02-02T10:29:37.000Z</time>
      </trkpt>
      <trkpt lat="43.63196" lon="5.74572">
        <ele>401</ele>
        <time>2013-02-02T10:29:55.000Z</time>
      </trkpt>
      <trkpt lat="43.6315" lon="5.74591">
        <ele>402</ele>
        <time>2013-02-02T10:30:15.000Z</time>
      </trkpt>
      <trkpt lat="43.63104" lon="5.74607">
        <ele>405.79998779297</ele>
        <time>2013-02-02T10:30:34.000Z</time>
      </trkpt>
      <trkpt lat="43.63062" lon="5.74593">
        <ele>408.20001220703</ele>
        <time>2013-02-02T10:30:53.000Z</time>
      </trkpt>
      <trkpt lat="43.63015" lon="5.74602">
        <ele>410.20001220703</ele>
        <time>2013-02-02T10:31:09.000Z</time>
      </trkpt>
      <trkpt lat="43.62967" lon="5.74591">
        <ele>411</ele>
        <time>2013-02-02T10:31:24.000Z</time>
      </trkpt>
      <trkpt lat="43.62922" lon="5.74574">
        <ele>413.60000610352</ele>
        <time>2013-02-02T10:31:38.000Z</time>
      </trkpt>
      <trkpt lat="43.62928" lon="5.74559">
        <ele>414.39999389648</ele>
        <time>2013-02-02T10:33:02.000Z</time>
      </trkpt>
      <trkpt lat="43.62971" lon="5.74528">
        <ele>410.39999389648</ele>
        <time>2013-02-02T10:33:13.000Z</time>
      </trkpt>
      <trkpt lat="43.62994" lon="5.74474">
        <ele>407.39999389648</ele>
        <time>2013-02-02T10:33:22.000Z</time>
      </trkpt>
      <trkpt lat="43.63011" lon="5.74416">
        <ele>409.39999389648</ele>
        <time>2013-02-02T10:33:31.000Z</time>
      </trkpt>
      <trkpt lat="43.63024" lon="5.74354">
        <ele>409</ele>
        <time>2013-02-02T10:33:41.000Z</time>
      </trkpt>
      <trkpt lat="43.63038" lon="5.74293">
        <ele>406.79998779297</ele>
        <time>2013-02-02T10:33:54.000Z</time>
      </trkpt>
      <trkpt lat="43.63044" lon="5.74226">
        <ele>405.39999389648</ele>
        <time>2013-02-02T10:34:10.000Z</time>
      </trkpt>
      <trkpt lat="43.63047" lon="5.74161">
        <ele>404.79998779297</ele>
        <time>2013-02-02T10:34:20.000Z</time>
      </trkpt>
      <trkpt lat="43.6305" lon="5.74098">
        <ele>406</ele>
        <time>2013-02-02T10:34:28.000Z</time>
      </trkpt>
      <trkpt lat="43.63042" lon="5.74032">
        <ele>408</ele>
        <time>2013-02-02T10:34:39.000Z</time>
      </trkpt>
      <trkpt lat="43.63029" lon="5.73971">
        <ele>411.20001220703</ele>
        <time>2013-02-02T10:34:52.000Z</time>
      </trkpt>
      <trkpt lat="43.63028" lon="5.73907">
        <ele>412.39999389648</ele>
        <time>2013-02-02T10:35:05.000Z</time>
      </trkpt>
      <trkpt lat="43.63031" lon="5.7384">
        <ele>413.60000610352</ele>
        <time>2013-02-02T10:35:18.000Z</time>
      </trkpt>
      <trkpt lat="43.63044" lon="5.73777">
        <ele>414.20001220703</ele>
        <time>2013-02-02T10:35:29.000Z</time>
      </trkpt>
      <trkpt lat="43.63054" lon="5.73709">
        <ele>415</ele>
        <time>2013-02-02T10:35:39.000Z</time>
      </trkpt>
      <trkpt lat="43.63062" lon="5.73643">
        <ele>414.39999389648</ele>
        <time>2013-02-02T10:35:49.000Z</time>
      </trkpt>
      <trkpt lat="43.63059" lon="5.73576">
        <ele>414.60000610352</ele>
        <time>2013-02-02T10:36:03.000Z</time>
      </trkpt>
      <trkpt lat="43.63059" lon="5.73508">
        <ele>416.20001220703</ele>
        <time>2013-02-02T10:36:18.000Z</time>
      </trkpt>
      <trkpt lat="43.63069" lon="5.73443">
        <ele>419</ele>
        <time>2013-02-02T10:36:33.000Z</time>
      </trkpt>
      <trkpt lat="43.63078" lon="5.73381">
        <ele>421.39999389648</ele>
        <time>2013-02-02T10:36:49.000Z</time>
      </trkpt>
      <trkpt lat="43.6309" lon="5.73316">
        <ele>423</ele>
        <time>2013-02-02T10:37:06.000Z</time>
      </trkpt>
      <trkpt lat="43.63094" lon="5.73247">
        <ele>424</ele>
        <time>2013-02-02T10:37:23.000Z</time>
      </trkpt>
      <trkpt lat="43.63073" lon="5.73186">
        <ele>423.60000610352</ele>
        <time>2013-02-02T10:37:40.000Z</time>
      </trkpt>
      <trkpt lat="43.63046" lon="5.73131">
        <ele>428.20001220703</ele>
        <time>2013-02-02T10:37:56.000Z</time>
      </trkpt>
      <trkpt lat="43.63021" lon="5.73072">
        <ele>432.39999389648</ele>
        <time>2013-02-02T10:40:47.000Z</time>
      </trkpt>
      <trkpt lat="43.63026" lon="5.73011">
        <ele>434.79998779297</ele>
        <time>2013-02-02T10:41:04.000Z</time>
      </trkpt>
      <trkpt lat="43.63031" lon="5.72947">
        <ele>436.39999389648</ele>
        <time>2013-02-02T10:41:25.000Z</time>
      </trkpt>
      <trkpt lat="43.63043" lon="5.72883">
        <ele>438.39999389648</ele>
        <time>2013-02-02T10:41:47.000Z</time>
      </trkpt>
      <trkpt lat="43.63066" lon="5.72825">
        <ele>439.60000610352</ele>
        <time>2013-02-02T10:42:12.000Z</time>
      </trkpt>
      <trkpt lat="43.63081" lon="5.72764">
        <ele>442.20001220703</ele>
        <time>2013-02-02T10:42:43.000Z</time>
      </trkpt>
      <trkpt lat="43.63104" lon="5.72707">
        <ele>444.79998779297</ele>
        <time>2013-02-02T10:43:13.000Z</time>
      </trkpt>
      <trkpt lat="43.6312" lon="5.72645">
        <ele>447</ele>
        <time>2013-02-02T10:43:35.000Z</time>
      </trkpt>
      <trkpt lat="43.6314" lon="5.72587">
        <ele>449</ele>
        <time>2013-02-02T10:43:50.000Z</time>
      </trkpt>
      <trkpt lat="43.63158" lon="5.72526">
        <ele>449.79998779297</ele>
        <time>2013-02-02T10:44:05.000Z</time>
      </trkpt>
      <trkpt lat="43.6318" lon="5.72471">
        <ele>451.39999389648</ele>
        <time>2013-02-02T10:44:17.000Z</time>
      </trkpt>
      <trkpt lat="43.63201" lon="5.72412">
        <ele>453</ele>
        <time>2013-02-02T10:44:31.000Z</time>
      </trkpt>
      <trkpt lat="43.63221" lon="5.72351">
        <ele>455.20001220703</ele>
        <time>2013-02-02T10:44:46.000Z</time>
      </trkpt>
      <trkpt lat="43.63226" lon="5.72294">
        <ele>458.60000610352</ele>
        <time>2013-02-02T10:45:06.000Z</time>
      </trkpt>
      <trkpt lat="43.63207" lon="5.72243">
        <ele>462.39999389648</ele>
        <time>2013-02-02T10:45:39.000Z</time>
      </trkpt>
      <trkpt lat="43.63233" lon="5.72182">
        <ele>464.39999389648</ele>
        <time>2013-02-02T10:46:03.000Z</time>
      </trkpt>
      <trkpt lat="43.6326" lon="5.72123">
        <ele>464.79998779297</ele>
        <time>2013-02-02T10:46:21.000Z</time>
      </trkpt>
      <trkpt lat="43.63277" lon="5.72061">
        <ele>466</ele>
        <time>2013-02-02T10:46:35.000Z</time>
      </trkpt>
      <trkpt lat="43.63296" lon="5.72003">
        <ele>467</ele>
        <time>2013-02-02T10:46:47.000Z</time>
      </trkpt>
      <trkpt lat="43.633" lon="5.71938">
        <ele>471</ele>
        <time>2013-02-02T10:50:04.000Z</time>
      </trkpt>
      <trkpt lat="43.63299" lon="5.71872">
        <ele>477.79998779297</ele>
        <time>2013-02-02T10:50:31.000Z</time>
      </trkpt>
      <trkpt lat="43.63256" lon="5.71892">
        <ele>480.60000610352</ele>
        <time>2013-02-02T10:51:25.000Z</time>
      </trkpt>
      <trkpt lat="43.63211" lon="5.71888">
        <ele>484.79998779297</ele>
        <time>2013-02-02T10:52:00.000Z</time>
      </trkpt>
      <trkpt lat="43.63162" lon="5.71884">
        <ele>488</ele>
        <time>2013-02-02T10:52:33.000Z</time>
      </trkpt>
      <trkpt lat="43.63118" lon="5.719">
        <ele>484.79998779297</ele>
        <time>2013-02-02T10:53:12.000Z</time>
      </trkpt>
      <trkpt lat="43.63089" lon="5.71944">
        <ele>488</ele>
        <time>2013-02-02T10:53:31.000Z</time>
      </trkpt>
      <trkpt lat="43.63064" lon="5.71997">
        <ele>487.79998779297</ele>
        <time>2013-02-02T10:53:52.000Z</time>
      </trkpt>
      <trkpt lat="43.63054" lon="5.72061">
        <ele>482.60000610352</ele>
        <time>2013-02-02T10:54:12.000Z</time>
      </trkpt>
      <trkpt lat="43.63029" lon="5.72116">
        <ele>480</ele>
        <time>2013-02-02T10:54:28.000Z</time>
      </trkpt>
      <trkpt lat="43.63005" lon="5.72172">
        <ele>483.60000610352</ele>
        <time>2013-02-02T10:54:45.000Z</time>
      </trkpt>
      <trkpt lat="43.62972" lon="5.72208">
        <ele>482.20001220703</ele>
        <time>2013-02-02T10:55:04.000Z</time>
      </trkpt>
      <trkpt lat="43.62936" lon="5.72248">
        <ele>483.20001220703</ele>
        <time>2013-02-02T10:55:26.000Z</time>
      </trkpt>
      <trkpt lat="43.62928" lon="5.72301">
        <ele>482.39999389648</ele>
        <time>2013-02-02T10:59:38.000Z</time>
      </trkpt>
      <trkpt lat="43.62919" lon="5.72357">
        <ele>481</ele>
        <time>2013-02-02T10:59:58.000Z</time>
      </trkpt>
      <trkpt lat="43.62912" lon="5.72417">
        <ele>476.20001220703</ele>
        <time>2013-02-02T11:00:14.000Z</time>
      </trkpt>
      <trkpt lat="43.62893" lon="5.72475">
        <ele>471.79998779297</ele>
        <time>2013-02-02T11:00:30.000Z</time>
      </trkpt>
      <trkpt lat="43.62854" lon="5.72489">
        <ele>469.39999389648</ele>
        <time>2013-02-02T11:00:47.000Z</time>
      </trkpt>
      <trkpt lat="43.62806" lon="5.72494">
        <ele>464.39999389648</ele>
        <time>2013-02-02T11:01:07.000Z</time>
      </trkpt>
      <trkpt lat="43.6276" lon="5.7249">
        <ele>456.79998779297</ele>
        <time>2013-02-02T11:01:26.000Z</time>
      </trkpt>
      <trkpt lat="43.62719" lon="5.72525">
        <ele>448.79998779297</ele>
        <time>2013-02-02T11:02:18.000Z</time>
      </trkpt>
      <trkpt lat="43.62701" lon="5.72582">
        <ele>449.20001220703</ele>
        <time>2013-02-02T11:02:40.000Z</time>
      </trkpt>
      <trkpt lat="43.62665" lon="5.72612">
        <ele>441.39999389648</ele>
        <time>2013-02-02T11:03:10.000Z</time>
      </trkpt>
      <trkpt lat="43.62628" lon="5.72644">
        <ele>434</ele>
        <time>2013-02-02T11:03:34.000Z</time>
      </trkpt>
      <trkpt lat="43.626" lon="5.72696">
        <ele>429.79998779297</ele>
        <time>2013-02-02T11:03:52.000Z</time>
      </trkpt>
      <trkpt lat="43.62572" lon="5.72746">
        <ele>424.20001220703</ele>
        <time>2013-02-02T11:04:13.000Z</time>
      </trkpt>
      <trkpt lat="43.6256" lon="5.72809">
        <ele>423.39999389648</ele>
        <time>2013-02-02T11:04:38.000Z</time>
      </trkpt>
      <trkpt lat="43.62519" lon="5.72827">
        <ele>410.79998779297</ele>
        <time>2013-02-02T11:04:57.000Z</time>
      </trkpt>
      <trkpt lat="43.62468" lon="5.72831">
        <ele>398.60000610352</ele>
        <time>2013-02-02T11:05:07.000Z</time>
      </trkpt>
      <trkpt lat="43.62419" lon="5.72832">
        <ele>389.39999389648</ele>
        <time>2013-02-02T11:05:16.000Z</time>
      </trkpt>
      <trkpt lat="43.62407" lon="5.72784">
        <ele>389.20001220703</ele>
        <time>2013-02-02T11:09:22.000Z</time>
      </trkpt>
      <trkpt lat="43.62423" lon="5.72719">
        <ele>391.60000610352</ele>
        <time>2013-02-02T11:09:45.000Z</time>
      </trkpt>
      <trkpt lat="43.62431" lon="5.72653">
        <ele>392.39999389648</ele>
        <time>2013-02-02T11:09:56.000Z</time>
      </trkpt>
      <trkpt lat="43.62438" lon="5.72589">
        <ele>392.20001220703</ele>
        <time>2013-02-02T11:10:06.000Z</time>
      </trkpt>
      <trkpt lat="43.62451" lon="5.72527">
        <ele>391</ele>
        <time>2013-02-02T11:10:16.000Z</time>
      </trkpt>
      <trkpt lat="43.62473" lon="5.72471">
        <ele>390.79998779297</ele>
        <time>2013-02-02T11:10:23.000Z</time>
      </trkpt>
      <trkpt lat="43.62486" lon="5.72401">
        <ele>390</ele>
        <time>2013-02-02T11:10:30.000Z</time>
      </trkpt>
      <trkpt lat="43.62501" lon="5.72338">
        <ele>386.39999389648</ele>
        <time>2013-02-02T11:10:37.000Z</time>
      </trkpt>
      <trkpt lat="43.62514" lon="5.72271">
        <ele>381.20001220703</ele>
        <time>2013-02-02T11:10:43.000Z</time>
      </trkpt>
      <trkpt lat="43.62529" lon="5.72202">
        <ele>377.39999389648</ele>
        <time>2013-02-02T11:10:49.000Z</time>
      </trkpt>
      <trkpt lat="43.62541" lon="5.72131">
        <ele>374.79998779297</ele>
        <time>2013-02-02T11:10:55.000Z</time>
      </trkpt>
      <trkpt lat="43.62552" lon="5.72062">
        <ele>373.39999389648</ele>
        <time>2013-02-02T11:11:01.000Z</time>
      </trkpt>
      <trkpt lat="43.62553" lon="5.71998">
        <ele>372.39999389648</ele>
        <time>2013-02-02T11:11:07.000Z</time>
      </trkpt>
      <trkpt lat="43.6255" lon="5.71928">
        <ele>371.60000610352</ele>
        <time>2013-02-02T11:11:14.000Z</time>
      </trkpt>
      <trkpt lat="43.62554" lon="5.71858">
        <ele>370.60000610352</ele>
        <time>2013-02-02T11:11:21.000Z</time>
      </trkpt>
      <trkpt lat="43.62556" lon="5.71792">
        <ele>368</ele>
        <time>2013-02-02T11:11:29.000Z</time>
      </trkpt>
      <trkpt lat="43.62557" lon="5.71724">
        <ele>365.60000610352</ele>
        <time>2013-02-02T11:11:37.000Z</time>
      </trkpt>
      <trkpt lat="43.62561" lon="5.71658">
        <ele>365.79998779297</ele>
        <time>2013-02-02T11:11:45.000Z</time>
      </trkpt>
      <trkpt lat="43.62561" lon="5.71596">
        <ele>366.20001220703</ele>
        <time>2013-02-02T11:11:52.000Z</time>
      </trkpt>
      <trkpt lat="43.62561" lon="5.71525">
        <ele>365</ele>
        <time>2013-02-02T11:12:00.000Z</time>
      </trkpt>
      <trkpt lat="43.62557" lon="5.71454">
        <ele>363.60000610352</ele>
        <time>2013-02-02T11:12:07.000Z</time>
      </trkpt>
      <trkpt lat="43.62543" lon="5.714">
        <ele>362.79998779297</ele>
        <time>2013-02-02T11:12:15.000Z</time>
      </trkpt>
      <trkpt lat="43.62498" lon="5.71406">
        <ele>361</ele>
        <time>2013-02-02T11:12:39.000Z</time>
      </trkpt>
      <trkpt lat="43.62449" lon="5.71399">
        <ele>358.60000610352</ele>
        <time>2013-02-02T11:12:47.000Z</time>
      </trkpt>
      <trkpt lat="43.62447" lon="5.714">
        <ele>358.60000610352</ele>
        <time>2013-02-02T11:13:06.000Z</time>
      </trkpt>
      <trkpt lat="43.62495" lon="5.71406">
        <ele>361</ele>
        <time>2013-02-02T11:13:20.000Z</time>
      </trkpt>
      <trkpt lat="43.62515" lon="5.71408">
        <ele>361.60000610352</ele>
        <time>2013-02-02T11:13:37.000Z</time>
      </trkpt>
      <trkpt lat="43.62467" lon="5.71404">
        <ele>359.39999389648</ele>
        <time>2013-02-02T11:13:46.000Z</time>
      </trkpt>
      <trkpt lat="43.62418" lon="5.71396">
        <ele>357.20001220703</ele>
        <time>2013-02-02T11:13:54.000Z</time>
      </trkpt>
      <trkpt lat="43.62371" lon="5.71383">
        <ele>354.60000610352</ele>
        <time>2013-02-02T11:14:01.000Z</time>
      </trkpt>
      <trkpt lat="43.62322" lon="5.71363">
        <ele>351.20001220703</ele>
        <time>2013-02-02T11:14:08.000Z</time>
      </trkpt>
      <trkpt lat="43.62277" lon="5.71342">
        <ele>349</ele>
        <time>2013-02-02T11:14:15.000Z</time>
      </trkpt>
      <trkpt lat="43.62234" lon="5.7132">
        <ele>347.39999389648</ele>
        <time>2013-02-02T11:14:22.000Z</time>
      </trkpt>
      <trkpt lat="43.62188" lon="5.71298">
        <ele>345.60000610352</ele>
        <time>2013-02-02T11:14:30.000Z</time>
      </trkpt>
      <trkpt lat="43.62144" lon="5.7128">
        <ele>343.79998779297</ele>
        <time>2013-02-02T11:14:37.000Z</time>
      </trkpt>
      <trkpt lat="43.62115" lon="5.71238">
        <ele>341.60000610352</ele>
        <time>2013-02-02T11:14:44.000Z</time>
      </trkpt>
      <trkpt lat="43.6211" lon="5.71176">
        <ele>341.79998779297</ele>
        <time>2013-02-02T11:14:51.000Z</time>
      </trkpt>
      <trkpt lat="43.62073" lon="5.71125">
        <ele>338.39999389648</ele>
        <time>2013-02-02T11:14:58.000Z</time>
      </trkpt>
      <trkpt lat="43.62041" lon="5.71069">
        <ele>336.20001220703</ele>
        <time>2013-02-02T11:15:05.000Z</time>
      </trkpt>
      <trkpt lat="43.62013" lon="5.71019">
        <ele>335.20001220703</ele>
        <time>2013-02-02T11:15:12.000Z</time>
      </trkpt>
      <trkpt lat="43.61966" lon="5.71002">
        <ele>335</ele>
        <time>2013-02-02T11:15:20.000Z</time>
      </trkpt>
      <trkpt lat="43.6192" lon="5.70991">
        <ele>333.79998779297</ele>
        <time>2013-02-02T11:15:27.000Z</time>
      </trkpt>
      <trkpt lat="43.61872" lon="5.70979">
        <ele>331.39999389648</ele>
        <time>2013-02-02T11:15:34.000Z</time>
      </trkpt>
      <trkpt lat="43.61825" lon="5.70974">
        <ele>329</ele>
        <time>2013-02-02T11:15:40.000Z</time>
      </trkpt>
      <trkpt lat="43.61777" lon="5.70971">
        <ele>327.39999389648</ele>
        <time>2013-02-02T11:15:47.000Z</time>
      </trkpt>
      <trkpt lat="43.6174" lon="5.70944">
        <ele>324.60000610352</ele>
        <time>2013-02-02T11:15:55.000Z</time>
      </trkpt>
      <trkpt lat="43.61756" lon="5.7088">
        <ele>324.60000610352</ele>
        <time>2013-02-02T11:16:03.000Z</time>
      </trkpt>
      <trkpt lat="43.61752" lon="5.7081">
        <ele>323.79998779297</ele>
        <time>2013-02-02T11:16:11.000Z</time>
      </trkpt>
      <trkpt lat="43.6174" lon="5.70748">
        <ele>319.79998779297</ele>
        <time>2013-02-02T11:16:18.000Z</time>
      </trkpt>
      <trkpt lat="43.61734" lon="5.70681">
        <ele>318.20001220703</ele>
        <time>2013-02-02T11:16:25.000Z</time>
      </trkpt>
      <trkpt lat="43.61732" lon="5.70614">
        <ele>316.79998779297</ele>
        <time>2013-02-02T11:16:32.000Z</time>
      </trkpt>
      <trkpt lat="43.61726" lon="5.70543">
        <ele>315.20001220703</ele>
        <time>2013-02-02T11:16:39.000Z</time>
      </trkpt>
      <trkpt lat="43.61717" lon="5.70479">
        <ele>313.39999389648</ele>
        <time>2013-02-02T11:16:45.000Z</time>
      </trkpt>
      <trkpt lat="43.61707" lon="5.70412">
        <ele>311.79998779297</ele>
        <time>2013-02-02T11:16:51.000Z</time>
      </trkpt>
      <trkpt lat="43.61696" lon="5.70348">
        <ele>310.39999389648</ele>
        <time>2013-02-02T11:16:59.000Z</time>
      </trkpt>
      <trkpt lat="43.61684" lon="5.70285">
        <ele>309.20001220703</ele>
        <time>2013-02-02T11:17:07.000Z</time>
      </trkpt>
      <trkpt lat="43.61678" lon="5.70221">
        <ele>308.20001220703</ele>
        <time>2013-02-02T11:17:15.000Z</time>
      </trkpt>
      <trkpt lat="43.61671" lon="5.70159">
        <ele>307</ele>
        <time>2013-02-02T11:17:23.000Z</time>
      </trkpt>
      <trkpt lat="43.61662" lon="5.70098">
        <ele>307</ele>
        <time>2013-02-02T11:17:30.000Z</time>
      </trkpt>
      <trkpt lat="43.61643" lon="5.7004">
        <ele>308.20001220703</ele>
        <time>2013-02-02T11:17:38.000Z</time>
      </trkpt>
      <trkpt lat="43.61615" lon="5.69985">
        <ele>309.60000610352</ele>
        <time>2013-02-02T11:17:45.000Z</time>
      </trkpt>
      <trkpt lat="43.61592" lon="5.69924">
        <ele>311.60000610352</ele>
        <time>2013-02-02T11:17:52.000Z</time>
      </trkpt>
      <trkpt lat="43.61579" lon="5.69858">
        <ele>311</ele>
        <time>2013-02-02T11:17:59.000Z</time>
      </trkpt>
      <trkpt lat="43.61581" lon="5.69788">
        <ele>310.39999389648</ele>
        <time>2013-02-02T11:18:06.000Z</time>
      </trkpt>
      <trkpt lat="43.61583" lon="5.69718">
        <ele>310.60000610352</ele>
        <time>2013-02-02T11:18:13.000Z</time>
      </trkpt>
      <trkpt lat="43.61577" lon="5.69649">
        <ele>312.20001220703</ele>
        <time>2013-02-02T11:18:20.000Z</time>
      </trkpt>
      <trkpt lat="43.61554" lon="5.69595">
        <ele>312.60000610352</ele>
        <time>2013-02-02T11:18:28.000Z</time>
      </trkpt>
      <trkpt lat="43.6153" lon="5.69537">
        <ele>312.60000610352</ele>
        <time>2013-02-02T11:18:36.000Z</time>
      </trkpt>
      <trkpt lat="43.61519" lon="5.69473">
        <ele>312.79998779297</ele>
        <time>2013-02-02T11:18:44.000Z</time>
      </trkpt>
      <trkpt lat="43.61507" lon="5.69413">
        <ele>312.60000610352</ele>
        <time>2013-02-02T11:18:50.000Z</time>
      </trkpt>
      <trkpt lat="43.61493" lon="5.69346">
        <ele>312.79998779297</ele>
        <time>2013-02-02T11:18:57.000Z</time>
      </trkpt>
      <trkpt lat="43.61491" lon="5.69276">
        <ele>314</ele>
        <time>2013-02-02T11:19:04.000Z</time>
      </trkpt>
      <trkpt lat="43.61486" lon="5.69213">
        <ele>315.79998779297</ele>
        <time>2013-02-02T11:19:10.000Z</time>
      </trkpt>
      <trkpt lat="43.61461" lon="5.6916">
        <ele>315.39999389648</ele>
        <time>2013-02-02T11:19:16.000Z</time>
      </trkpt>
      <trkpt lat="43.61435" lon="5.69104">
        <ele>315</ele>
        <time>2013-02-02T11:19:22.000Z</time>
      </trkpt>
      <trkpt lat="43.6142" lon="5.69042">
        <ele>314.79998779297</ele>
        <time>2013-02-02T11:19:28.000Z</time>
      </trkpt>
      <trkpt lat="43.61413" lon="5.68972">
        <ele>317.60000610352</ele>
        <time>2013-02-02T11:19:34.000Z</time>
      </trkpt>
      <trkpt lat="43.61392" lon="5.6891">
        <ele>319.79998779297</ele>
        <time>2013-02-02T11:19:40.000Z</time>
      </trkpt>
      <trkpt lat="43.6136" lon="5.68861">
        <ele>317.20001220703</ele>
        <time>2013-02-02T11:19:46.000Z</time>
      </trkpt>
      <trkpt lat="43.61366" lon="5.68795">
        <ele>317.60000610352</ele>
        <time>2013-02-02T11:19:52.000Z</time>
      </trkpt>
      <trkpt lat="43.61402" lon="5.68743">
        <ele>318.20001220703</ele>
        <time>2013-02-02T11:19:58.000Z</time>
      </trkpt>
      <trkpt lat="43.61425" lon="5.68685">
        <ele>312.39999389648</ele>
        <time>2013-02-02T11:20:03.000Z</time>
      </trkpt>
      <trkpt lat="43.61431" lon="5.68614">
        <ele>310.60000610352</ele>
        <time>2013-02-02T11:20:09.000Z</time>
      </trkpt>
      <trkpt lat="43.61417" lon="5.68553">
        <ele>306.79998779297</ele>
        <time>2013-02-02T11:20:15.000Z</time>
      </trkpt>
      <trkpt lat="43.61421" lon="5.68485">
        <ele>304.79998779297</ele>
        <time>2013-02-02T11:20:22.000Z</time>
      </trkpt>
      <trkpt lat="43.61456" lon="5.68437">
        <ele>304.39999389648</ele>
        <time>2013-02-02T11:20:29.000Z</time>
      </trkpt>
      <trkpt lat="43.61495" lon="5.68395">
        <ele>301.60000610352</ele>
        <time>2013-02-02T11:20:36.000Z</time>
      </trkpt>
      <trkpt lat="43.61537" lon="5.68363">
        <ele>303.60000610352</ele>
        <time>2013-02-02T11:20:43.000Z</time>
      </trkpt>
      <trkpt lat="43.61579" lon="5.68329">
        <ele>299.39999389648</ele>
        <time>2013-02-02T11:20:50.000Z</time>
      </trkpt>
      <trkpt lat="43.61623" lon="5.68294">
        <ele>303.20001220703</ele>
        <time>2013-02-02T11:20:57.000Z</time>
      </trkpt>
      <trkpt lat="43.61664" lon="5.68262">
        <ele>301.79998779297</ele>
        <time>2013-02-02T11:21:04.000Z</time>
      </trkpt>
      <trkpt lat="43.61709" lon="5.68227">
        <ele>300.39999389648</ele>
        <time>2013-02-02T11:21:11.000Z</time>
      </trkpt>
      <trkpt lat="43.61751" lon="5.68199">
        <ele>298.60000610352</ele>
        <time>2013-02-02T11:21:17.000Z</time>
      </trkpt>
      <trkpt lat="43.61796" lon="5.68167">
        <ele>296.39999389648</ele>
        <time>2013-02-02T11:21:24.000Z</time>
      </trkpt>
      <trkpt lat="43.61837" lon="5.68127">
        <ele>296.39999389648</ele>
        <time>2013-02-02T11:21:31.000Z</time>
      </trkpt>
      <trkpt lat="43.61861" lon="5.68065">
        <ele>293.39999389648</ele>
        <time>2013-02-02T11:21:38.000Z</time>
      </trkpt>
      <trkpt lat="43.6188" lon="5.68008">
        <ele>292</ele>
        <time>2013-02-02T11:21:44.000Z</time>
      </trkpt>
      <trkpt lat="43.61898" lon="5.6794">
        <ele>290.60000610352</ele>
        <time>2013-02-02T11:21:51.000Z</time>
      </trkpt>
      <trkpt lat="43.61913" lon="5.67874">
        <ele>287.79998779297</ele>
        <time>2013-02-02T11:21:58.000Z</time>
      </trkpt>
      <trkpt lat="43.61929" lon="5.6781">
        <ele>285.60000610352</ele>
        <time>2013-02-02T11:22:05.000Z</time>
      </trkpt>
      <trkpt lat="43.61957" lon="5.67756">
        <ele>284.60000610352</ele>
        <time>2013-02-02T11:22:12.000Z</time>
      </trkpt>
      <trkpt lat="43.62" lon="5.67717">
        <ele>285.39999389648</ele>
        <time>2013-02-02T11:22:19.000Z</time>
      </trkpt>
      <trkpt lat="43.62044" lon="5.67681">
        <ele>285.60000610352</ele>
        <time>2013-02-02T11:22:26.000Z</time>
      </trkpt>
      <trkpt lat="43.62086" lon="5.67645">
        <ele>286</ele>
        <time>2013-02-02T11:22:33.000Z</time>
      </trkpt>
      <trkpt lat="43.6213" lon="5.67608">
        <ele>287.79998779297</ele>
        <time>2013-02-02T11:22:40.000Z</time>
      </trkpt>
      <trkpt lat="43.62173" lon="5.67571">
        <ele>290</ele>
        <time>2013-02-02T11:22:47.000Z</time>
      </trkpt>
      <trkpt lat="43.62203" lon="5.67518">
        <ele>290.20001220703</ele>
        <time>2013-02-02T11:22:54.000Z</time>
      </trkpt>
      <trkpt lat="43.62212" lon="5.67455">
        <ele>288.79998779297</ele>
        <time>2013-02-02T11:23:00.000Z</time>
      </trkpt>
      <trkpt lat="43.62212" lon="5.67387">
        <ele>287</ele>
        <time>2013-02-02T11:23:06.000Z</time>
      </trkpt>
      <trkpt lat="43.62212" lon="5.67324">
        <ele>285.60000610352</ele>
        <time>2013-02-02T11:23:12.000Z</time>
      </trkpt>
      <trkpt lat="43.62211" lon="5.67262">
        <ele>285.20001220703</ele>
        <time>2013-02-02T11:23:18.000Z</time>
      </trkpt>
      <trkpt lat="43.622" lon="5.67192">
        <ele>285.39999389648</ele>
        <time>2013-02-02T11:23:25.000Z</time>
      </trkpt>
      <trkpt lat="43.62194" lon="5.67124">
        <ele>285.60000610352</ele>
        <time>2013-02-02T11:23:32.000Z</time>
      </trkpt>
      <trkpt lat="43.62195" lon="5.67057">
        <ele>285.20001220703</ele>
        <time>2013-02-02T11:23:39.000Z</time>
      </trkpt>
      <trkpt lat="43.62194" lon="5.66988">
        <ele>284.20001220703</ele>
        <time>2013-02-02T11:23:47.000Z</time>
      </trkpt>
      <trkpt lat="43.622" lon="5.66929">
        <ele>283</ele>
        <time>2013-02-02T11:23:56.000Z</time>
      </trkpt>
      <trkpt lat="43.62172" lon="5.66866">
        <ele>282.60000610352</ele>
        <time>2013-02-02T11:24:06.000Z</time>
      </trkpt>
      <trkpt lat="43.62169" lon="5.66806">
        <ele>284.39999389648</ele>
        <time>2013-02-02T11:24:14.000Z</time>
      </trkpt>
      <trkpt lat="43.62205" lon="5.66765">
        <ele>284.79998779297</ele>
        <time>2013-02-02T11:24:20.000Z</time>
      </trkpt>
      <trkpt lat="43.62243" lon="5.66723">
        <ele>285.60000610352</ele>
        <time>2013-02-02T11:24:26.000Z</time>
      </trkpt>
      <trkpt lat="43.62279" lon="5.66682">
        <ele>286.20001220703</ele>
        <time>2013-02-02T11:24:32.000Z</time>
      </trkpt>
      <trkpt lat="43.62314" lon="5.66641">
        <ele>285.79998779297</ele>
        <time>2013-02-02T11:24:38.000Z</time>
      </trkpt>
      <trkpt lat="43.62349" lon="5.666">
        <ele>286.79998779297</ele>
        <time>2013-02-02T11:24:44.000Z</time>
      </trkpt>
      <trkpt lat="43.62385" lon="5.66548">
        <ele>286.39999389648</ele>
        <time>2013-02-02T11:24:51.000Z</time>
      </trkpt>
      <trkpt lat="43.62416" lon="5.66502">
        <ele>282</ele>
        <time>2013-02-02T11:24:57.000Z</time>
      </trkpt>
      <trkpt lat="43.62451" lon="5.66451">
        <ele>284.20001220703</ele>
        <time>2013-02-02T11:25:04.000Z</time>
      </trkpt>
      <trkpt lat="43.62482" lon="5.66406">
        <ele>284.20001220703</ele>
        <time>2013-02-02T11:25:10.000Z</time>
      </trkpt>
      <trkpt lat="43.62515" lon="5.66356">
        <ele>283.20001220703</ele>
        <time>2013-02-02T11:25:17.000Z</time>
      </trkpt>
      <trkpt lat="43.62548" lon="5.66307">
        <ele>282.79998779297</ele>
        <time>2013-02-02T11:25:24.000Z</time>
      </trkpt>
      <trkpt lat="43.62581" lon="5.66257">
        <ele>282.79998779297</ele>
        <time>2013-02-02T11:25:31.000Z</time>
      </trkpt>
      <trkpt lat="43.62611" lon="5.66202">
        <ele>281.20001220703</ele>
        <time>2013-02-02T11:25:38.000Z</time>
      </trkpt>
      <trkpt lat="43.62636" lon="5.66147">
        <ele>279.20001220703</ele>
        <time>2013-02-02T11:25:44.000Z</time>
      </trkpt>
      <trkpt lat="43.62659" lon="5.6609">
        <ele>277.39999389648</ele>
        <time>2013-02-02T11:25:50.000Z</time>
      </trkpt>
      <trkpt lat="43.6268" lon="5.66033">
        <ele>276.79998779297</ele>
        <time>2013-02-02T11:25:56.000Z</time>
      </trkpt>
      <trkpt lat="43.62703" lon="5.65974">
        <ele>277.60000610352</ele>
        <time>2013-02-02T11:26:02.000Z</time>
      </trkpt>
      <trkpt lat="43.62726" lon="5.65913">
        <ele>278.39999389648</ele>
        <time>2013-02-02T11:26:08.000Z</time>
      </trkpt>
      <trkpt lat="43.62749" lon="5.65854">
        <ele>278.20001220703</ele>
        <time>2013-02-02T11:26:14.000Z</time>
      </trkpt>
      <trkpt lat="43.62772" lon="5.65795">
        <ele>277.20001220703</ele>
        <time>2013-02-02T11:26:20.000Z</time>
      </trkpt>
      <trkpt lat="43.62793" lon="5.65727">
        <ele>276.60000610352</ele>
        <time>2013-02-02T11:26:26.000Z</time>
      </trkpt>
      <trkpt lat="43.62812" lon="5.65657">
        <ele>276.20001220703</ele>
        <time>2013-02-02T11:26:32.000Z</time>
      </trkpt>
      <trkpt lat="43.6283" lon="5.65592">
        <ele>275.20001220703</ele>
        <time>2013-02-02T11:26:38.000Z</time>
      </trkpt>
      <trkpt lat="43.62848" lon="5.65527">
        <ele>274</ele>
        <time>2013-02-02T11:26:45.000Z</time>
      </trkpt>
      <trkpt lat="43.62864" lon="5.65466">
        <ele>273.79998779297</ele>
        <time>2013-02-02T11:26:52.000Z</time>
      </trkpt>
      <trkpt lat="43.62886" lon="5.6541">
        <ele>274.20001220703</ele>
        <time>2013-02-02T11:26:59.000Z</time>
      </trkpt>
      <trkpt lat="43.62912" lon="5.65355">
        <ele>272.60000610352</ele>
        <time>2013-02-02T11:27:06.000Z</time>
      </trkpt>
      <trkpt lat="43.62939" lon="5.653">
        <ele>274.20001220703</ele>
        <time>2013-02-02T11:27:13.000Z</time>
      </trkpt>
      <trkpt lat="43.62966" lon="5.65246">
        <ele>276</ele>
        <time>2013-02-02T11:27:20.000Z</time>
      </trkpt>
      <trkpt lat="43.6299" lon="5.6519">
        <ele>277.79998779297</ele>
        <time>2013-02-02T11:27:27.000Z</time>
      </trkpt>
      <trkpt lat="43.63011" lon="5.65133">
        <ele>275.60000610352</ele>
        <time>2013-02-02T11:27:34.000Z</time>
      </trkpt>
      <trkpt lat="43.63032" lon="5.65076">
        <ele>272</ele>
        <time>2013-02-02T11:27:41.000Z</time>
      </trkpt>
      <trkpt lat="43.63054" lon="5.65023">
        <ele>269.60000610352</ele>
        <time>2013-02-02T11:27:47.000Z</time>
      </trkpt>
      <trkpt lat="43.63076" lon="5.6497">
        <ele>269</ele>
        <time>2013-02-02T11:27:53.000Z</time>
      </trkpt>
      <trkpt lat="43.631" lon="5.64906">
        <ele>269.60000610352</ele>
        <time>2013-02-02T11:28:00.000Z</time>
      </trkpt>
      <trkpt lat="43.63121" lon="5.64842">
        <ele>269</ele>
        <time>2013-02-02T11:28:08.000Z</time>
      </trkpt>
      <trkpt lat="43.63141" lon="5.64778">
        <ele>271.20001220703</ele>
        <time>2013-02-02T11:28:16.000Z</time>
      </trkpt>
      <trkpt lat="43.6316" lon="5.6472">
        <ele>271.60000610352</ele>
        <time>2013-02-02T11:28:23.000Z</time>
      </trkpt>
      <trkpt lat="43.63179" lon="5.64664">
        <ele>273</ele>
        <time>2013-02-02T11:28:30.000Z</time>
      </trkpt>
      <trkpt lat="43.632" lon="5.64601">
        <ele>270.20001220703</ele>
        <time>2013-02-02T11:28:37.000Z</time>
      </trkpt>
      <trkpt lat="43.63219" lon="5.64541">
        <ele>268.39999389648</ele>
        <time>2013-02-02T11:28:44.000Z</time>
      </trkpt>
      <trkpt lat="43.63239" lon="5.64476">
        <ele>267.60000610352</ele>
        <time>2013-02-02T11:28:51.000Z</time>
      </trkpt>
      <trkpt lat="43.63258" lon="5.64417">
        <ele>267.60000610352</ele>
        <time>2013-02-02T11:28:58.000Z</time>
      </trkpt>
      <trkpt lat="43.63279" lon="5.64362">
        <ele>267.39999389648</ele>
        <time>2013-02-02T11:29:05.000Z</time>
      </trkpt>
      <trkpt lat="43.63303" lon="5.64306">
        <ele>266.79998779297</ele>
        <time>2013-02-02T11:29:12.000Z</time>
      </trkpt>
      <trkpt lat="43.63332" lon="5.64258">
        <ele>265.20001220703</ele>
        <time>2013-02-02T11:29:19.000Z</time>
      </trkpt>
      <trkpt lat="43.6337" lon="5.64217">
        <ele>267.60000610352</ele>
        <time>2013-02-02T11:29:26.000Z</time>
      </trkpt>
      <trkpt lat="43.63415" lon="5.64185">
        <ele>266.79998779297</ele>
        <time>2013-02-02T11:29:33.000Z</time>
      </trkpt>
      <trkpt lat="43.63457" lon="5.64158">
        <ele>267</ele>
        <time>2013-02-02T11:29:40.000Z</time>
      </trkpt>
      <trkpt lat="43.63497" lon="5.64126">
        <ele>267.60000610352</ele>
        <time>2013-02-02T11:29:47.000Z</time>
      </trkpt>
      <trkpt lat="43.63531" lon="5.64074">
        <ele>267.79998779297</ele>
        <time>2013-02-02T11:29:55.000Z</time>
      </trkpt>
      <trkpt lat="43.63549" lon="5.64017">
        <ele>267.60000610352</ele>
        <time>2013-02-02T11:30:03.000Z</time>
      </trkpt>
      <trkpt lat="43.63576" lon="5.63969">
        <ele>266.39999389648</ele>
        <time>2013-02-02T11:30:13.000Z</time>
      </trkpt>
      <trkpt lat="43.63579" lon="5.63903">
        <ele>266.20001220703</ele>
        <time>2013-02-02T11:30:23.000Z</time>
      </trkpt>
    </trkseg>
  </trk>
</gpx>